<?xml version="1.0" encoding="UTF-8"?><gpx creator="Wikiloc - http://www.wikiloc.com" version="1.1" xmlns="http://www.topografix.com/GPX/1/1" xmlns:xsi="http://www.w3.org/2001/XMLSchema-instance" xsi:schemaLocation="http://www.topografix.com/GPX/1/1 http://www.topografix.com/GPX/1/1/gpx.xsd"><wpt lat="40.092582" lon="-5.944493"><ele>0.0</ele><time>2015-09-28T18:06:50Z</time><name>Era de San Bernabé</name><cmt></cmt><desc></desc></wpt><wpt lat="40.098424" lon="-5.934364"><ele>0.0</ele><time>2015-09-28T18:07:04Z</time><name>Derivación</name><cmt></cmt><desc></desc></wpt><wpt lat="40.095812" lon="-5.941465"><ele>0.0</ele><time>2015-09-28T18:07:14Z</time><name>Vistas</name><cmt></cmt><desc></desc></wpt><wpt lat="40.107297" lon="-5.904011"><ele>0.0</ele><time>2015-09-28T18:07:44Z</time><name>Casas del Castañar</name><cmt></cmt><desc></desc></wpt><wpt lat="40.106053" lon="-5.912287"><ele>0.0</ele><time>2015-09-28T18:07:56Z</time><name>Parque del Arroyo</name><cmt></cmt><desc></desc></wpt><wpt lat="40.103968" lon="-5.898474"><ele>0.0</ele><time>2015-09-28T18:08:45Z</time><name>Ruta los Castaños</name><cmt></cmt><desc></desc></wpt><wpt lat="40.101803" lon="-5.909349"><ele>0.0</ele><time>2015-09-28T18:09:18Z</time><name>Ruta los Castaños</name><cmt></cmt><desc></desc></wpt><trk><name>PR-CC 24 Era de San Bernabé (Casas del Castañar)</name><cmt></cmt><desc></desc><trkseg><trkpt lat="40.106002" lon="-5.912530"><ele>657.4</ele><time>2013-05-07T06:40:01Z</time></trkpt><trkpt lat="40.106075" lon="-5.912577"><ele>656.4</ele><time>2013-05-07T06:40:20Z</time></trkpt><trkpt lat="40.106166" lon="-5.912625"><ele>654.6</ele><time>2013-05-07T06:40:40Z</time></trkpt><trkpt lat="40.106208" lon="-5.912665"><ele>653.7</ele><time>2013-05-07T06:41:01Z</time></trkpt><trkpt lat="40.106272" lon="-5.912708"><ele>653.3</ele><time>2013-05-07T06:41:21Z</time></trkpt><trkpt lat="40.106316" lon="-5.912763"><ele>653.3</ele><time>2013-05-07T06:41:41Z</time></trkpt><trkpt lat="40.106335" lon="-5.912769"><ele>652.9</ele><time>2013-05-07T06:42:00Z</time></trkpt><trkpt lat="40.106386" lon="-5.912860"><ele>652.9</ele><time>2013-05-07T06:42:20Z</time></trkpt><trkpt lat="40.106411" lon="-5.912923"><ele>653.2</ele><time>2013-05-07T06:42:41Z</time></trkpt><trkpt lat="40.106452" lon="-5.913018"><ele>653.5</ele><time>2013-05-07T06:43:01Z</time></trkpt><trkpt lat="40.106518" lon="-5.913138"><ele>653.4</ele><time>2013-05-07T06:43:21Z</time></trkpt><trkpt lat="40.106570" lon="-5.913243"><ele>653.4</ele><time>2013-05-07T06:43:40Z</time></trkpt><trkpt lat="40.106590" lon="-5.913338"><ele>654.2</ele><time>2013-05-07T06:44:00Z</time></trkpt><trkpt lat="40.106623" lon="-5.913445"><ele>654.4</ele><time>2013-05-07T06:44:20Z</time></trkpt><trkpt lat="40.106663" lon="-5.913576"><ele>654.7</ele><time>2013-05-07T06:44:41Z</time></trkpt><trkpt lat="40.106705" lon="-5.913710"><ele>654.8</ele><time>2013-05-07T06:45:01Z</time></trkpt><trkpt lat="40.106797" lon="-5.913889"><ele>654.4</ele><time>2013-05-07T06:45:21Z</time></trkpt><trkpt lat="40.106850" lon="-5.914115"><ele>654.1</ele><time>2013-05-07T06:45:40Z</time></trkpt><trkpt lat="40.106804" lon="-5.914321"><ele>656.6</ele><time>2013-05-07T06:46:00Z</time></trkpt><trkpt lat="40.106754" lon="-5.914545"><ele>658.9</ele><time>2013-05-07T06:46:21Z</time></trkpt><trkpt lat="40.106716" lon="-5.914725"><ele>660.6</ele><time>2013-05-07T06:46:41Z</time></trkpt><trkpt lat="40.106670" lon="-5.914878"><ele>660.4</ele><time>2013-05-07T06:47:01Z</time></trkpt><trkpt lat="40.106647" lon="-5.915076"><ele>662.1</ele><time>2013-05-07T06:47:20Z</time></trkpt><trkpt lat="40.106598" lon="-5.915224"><ele>663.9</ele><time>2013-05-07T06:47:40Z</time></trkpt><trkpt lat="40.106575" lon="-5.915352"><ele>665.7</ele><time>2013-05-07T06:48:00Z</time></trkpt><trkpt lat="40.106526" lon="-5.915520"><ele>664.5</ele><time>2013-05-07T06:48:21Z</time></trkpt><trkpt lat="40.106471" lon="-5.915726"><ele>665.1</ele><time>2013-05-07T06:48:41Z</time></trkpt><trkpt lat="40.106446" lon="-5.915842"><ele>665.2</ele><time>2013-05-07T06:49:01Z</time></trkpt><trkpt lat="40.106423" lon="-5.915950"><ele>665.4</ele><time>2013-05-07T06:49:20Z</time></trkpt><trkpt lat="40.106417" lon="-5.916099"><ele>664.8</ele><time>2013-05-07T06:49:40Z</time></trkpt><trkpt lat="40.106393" lon="-5.916233"><ele>665.5</ele><time>2013-05-07T06:50:01Z</time></trkpt><trkpt lat="40.106374" lon="-5.916346"><ele>665.0</ele><time>2013-05-07T06:50:21Z</time></trkpt><trkpt lat="40.106350" lon="-5.916419"><ele>665.5</ele><time>2013-05-07T06:50:41Z</time></trkpt><trkpt lat="40.106344" lon="-5.916495"><ele>665.8</ele><time>2013-05-07T06:51:00Z</time></trkpt><trkpt lat="40.106335" lon="-5.916582"><ele>665.2</ele><time>2013-05-07T06:51:20Z</time></trkpt><trkpt lat="40.106331" lon="-5.916647"><ele>665.5</ele><time>2013-05-07T06:51:41Z</time></trkpt><trkpt lat="40.106333" lon="-5.916723"><ele>664.4</ele><time>2013-05-07T06:52:01Z</time></trkpt><trkpt lat="40.106308" lon="-5.916927"><ele>664.1</ele><time>2013-05-07T06:52:21Z</time></trkpt><trkpt lat="40.106285" lon="-5.917032"><ele>664.3</ele><time>2013-05-07T06:52:40Z</time></trkpt><trkpt lat="40.106257" lon="-5.917086"><ele>665.6</ele><time>2013-05-07T06:53:00Z</time></trkpt><trkpt lat="40.106248" lon="-5.917159"><ele>664.8</ele><time>2013-05-07T06:53:20Z</time></trkpt><trkpt lat="40.106205" lon="-5.917269"><ele>666.4</ele><time>2013-05-07T06:53:41Z</time></trkpt><trkpt lat="40.106181" lon="-5.917397"><ele>665.8</ele><time>2013-05-07T06:54:01Z</time></trkpt><trkpt lat="40.106165" lon="-5.917490"><ele>665.7</ele><time>2013-05-07T06:54:21Z</time></trkpt><trkpt lat="40.106152" lon="-5.917674"><ele>665.5</ele><time>2013-05-07T06:54:40Z</time></trkpt><trkpt lat="40.106153" lon="-5.917806"><ele>664.9</ele><time>2013-05-07T06:55:00Z</time></trkpt><trkpt lat="40.106146" lon="-5.917999"><ele>664.3</ele><time>2013-05-07T06:55:21Z</time></trkpt><trkpt lat="40.106141" lon="-5.918175"><ele>663.8</ele><time>2013-05-07T06:55:41Z</time></trkpt><trkpt lat="40.106138" lon="-5.918389"><ele>662.6</ele><time>2013-05-07T06:56:01Z</time></trkpt><trkpt lat="40.106138" lon="-5.918562"><ele>660.8</ele><time>2013-05-07T06:56:20Z</time></trkpt><trkpt lat="40.106107" lon="-5.918737"><ele>659.7</ele><time>2013-05-07T06:56:40Z</time></trkpt><trkpt lat="40.106064" lon="-5.918840"><ele>659.7</ele><time>2013-05-07T06:57:00Z</time></trkpt><trkpt lat="40.106012" lon="-5.918926"><ele>659.9</ele><time>2013-05-07T06:57:21Z</time></trkpt><trkpt lat="40.105987" lon="-5.919028"><ele>659.3</ele><time>2013-05-07T06:57:41Z</time></trkpt><trkpt lat="40.105930" lon="-5.919058"><ele>660.3</ele><time>2013-05-07T06:58:01Z</time></trkpt><trkpt lat="40.105852" lon="-5.919122"><ele>660.7</ele><time>2013-05-07T06:58:20Z</time></trkpt><trkpt lat="40.105609" lon="-5.919188"><ele>665.4</ele><time>2013-05-07T06:58:40Z</time></trkpt><trkpt lat="40.105430" lon="-5.919224"><ele>668.7</ele><time>2013-05-07T06:59:01Z</time></trkpt><trkpt lat="40.105295" lon="-5.919517"><ele>669.3</ele><time>2013-05-07T06:59:21Z</time></trkpt><trkpt lat="40.105182" lon="-5.919700"><ele>670.5</ele><time>2013-05-07T06:59:41Z</time></trkpt><trkpt lat="40.105080" lon="-5.919883"><ele>671.7</ele><time>2013-05-07T07:00:00Z</time></trkpt><trkpt lat="40.105072" lon="-5.920135"><ele>671.3</ele><time>2013-05-07T07:00:20Z</time></trkpt><trkpt lat="40.105067" lon="-5.920346"><ele>672.5</ele><time>2013-05-07T07:00:41Z</time></trkpt><trkpt lat="40.105058" lon="-5.920492"><ele>672.9</ele><time>2013-05-07T07:01:01Z</time></trkpt><trkpt lat="40.105036" lon="-5.920656"><ele>674.4</ele><time>2013-05-07T07:01:21Z</time></trkpt><trkpt lat="40.105016" lon="-5.920755"><ele>674.7</ele><time>2013-05-07T07:01:40Z</time></trkpt><trkpt lat="40.105004" lon="-5.920866"><ele>675.3</ele><time>2013-05-07T07:02:00Z</time></trkpt><trkpt lat="40.104992" lon="-5.920971"><ele>676.9</ele><time>2013-05-07T07:02:20Z</time></trkpt><trkpt lat="40.104972" lon="-5.921049"><ele>678.0</ele><time>2013-05-07T07:02:41Z</time></trkpt><trkpt lat="40.104975" lon="-5.921108"><ele>678.1</ele><time>2013-05-07T07:03:01Z</time></trkpt><trkpt lat="40.104967" lon="-5.921248"><ele>678.9</ele><time>2013-05-07T07:03:21Z</time></trkpt><trkpt lat="40.104955" lon="-5.921380"><ele>678.8</ele><time>2013-05-07T07:03:40Z</time></trkpt><trkpt lat="40.104951" lon="-5.921547"><ele>680.4</ele><time>2013-05-07T07:04:00Z</time></trkpt><trkpt lat="40.104944" lon="-5.921634"><ele>680.3</ele><time>2013-05-07T07:04:21Z</time></trkpt><trkpt lat="40.104945" lon="-5.921755"><ele>679.9</ele><time>2013-05-07T07:04:41Z</time></trkpt><trkpt lat="40.104927" lon="-5.922014"><ele>680.5</ele><time>2013-05-07T07:05:01Z</time></trkpt><trkpt lat="40.104870" lon="-5.922309"><ele>681.4</ele><time>2013-05-07T07:05:20Z</time></trkpt><trkpt lat="40.104839" lon="-5.922583"><ele>680.5</ele><time>2013-05-07T07:05:40Z</time></trkpt><trkpt lat="40.104767" lon="-5.922841"><ele>678.9</ele><time>2013-05-07T07:06:00Z</time></trkpt><trkpt lat="40.104694" lon="-5.923058"><ele>677.4</ele><time>2013-05-07T07:06:21Z</time></trkpt><trkpt lat="40.104691" lon="-5.923057"><ele>677.5</ele><time>2013-05-07T07:06:41Z</time></trkpt><trkpt lat="40.104618" lon="-5.923200"><ele>676.7</ele><time>2013-05-07T07:07:01Z</time></trkpt><trkpt lat="40.104473" lon="-5.923397"><ele>675.9</ele><time>2013-05-07T07:07:20Z</time></trkpt><trkpt lat="40.104324" lon="-5.923544"><ele>675.7</ele><time>2013-05-07T07:07:40Z</time></trkpt><trkpt lat="40.104115" lon="-5.923630"><ele>678.1</ele><time>2013-05-07T07:08:01Z</time></trkpt><trkpt lat="40.103924" lon="-5.923665"><ele>683.3</ele><time>2013-05-07T07:08:21Z</time></trkpt><trkpt lat="40.103817" lon="-5.923630"><ele>687.1</ele><time>2013-05-07T07:08:41Z</time></trkpt><trkpt lat="40.103756" lon="-5.923621"><ele>689.0</ele><time>2013-05-07T07:09:00Z</time></trkpt><trkpt lat="40.103661" lon="-5.923610"><ele>692.0</ele><time>2013-05-07T07:09:20Z</time></trkpt><trkpt lat="40.103580" lon="-5.923701"><ele>693.7</ele><time>2013-05-07T07:09:41Z</time></trkpt><trkpt lat="40.103536" lon="-5.923882"><ele>693.2</ele><time>2013-05-07T07:10:01Z</time></trkpt><trkpt lat="40.103542" lon="-5.923979"><ele>693.2</ele><time>2013-05-07T07:10:21Z</time></trkpt><trkpt lat="40.103550" lon="-5.924210"><ele>691.8</ele><time>2013-05-07T07:10:40Z</time></trkpt><trkpt lat="40.103563" lon="-5.924411"><ele>691.3</ele><time>2013-05-07T07:11:00Z</time></trkpt><trkpt lat="40.103561" lon="-5.924636"><ele>693.4</ele><time>2013-05-07T07:11:20Z</time></trkpt><trkpt lat="40.103558" lon="-5.924849"><ele>694.6</ele><time>2013-05-07T07:11:41Z</time></trkpt><trkpt lat="40.103554" lon="-5.925034"><ele>695.7</ele><time>2013-05-07T07:12:01Z</time></trkpt><trkpt lat="40.103554" lon="-5.925139"><ele>696.5</ele><time>2013-05-07T07:12:21Z</time></trkpt><trkpt lat="40.103577" lon="-5.925241"><ele>696.3</ele><time>2013-05-07T07:12:40Z</time></trkpt><trkpt lat="40.103592" lon="-5.925365"><ele>696.7</ele><time>2013-05-07T07:13:00Z</time></trkpt><trkpt lat="40.103600" lon="-5.925419"><ele>696.8</ele><time>2013-05-07T07:13:21Z</time></trkpt><trkpt lat="40.103604" lon="-5.925486"><ele>696.2</ele><time>2013-05-07T07:13:41Z</time></trkpt><trkpt lat="40.103607" lon="-5.925634"><ele>698.2</ele><time>2013-05-07T07:14:01Z</time></trkpt><trkpt lat="40.103613" lon="-5.925727"><ele>698.8</ele><time>2013-05-07T07:14:20Z</time></trkpt><trkpt lat="40.103596" lon="-5.925882"><ele>700.1</ele><time>2013-05-07T07:14:40Z</time></trkpt><trkpt lat="40.103535" lon="-5.926048"><ele>701.8</ele><time>2013-05-07T07:15:00Z</time></trkpt><trkpt lat="40.103519" lon="-5.926099"><ele>702.2</ele><time>2013-05-07T07:15:21Z</time></trkpt><trkpt lat="40.103508" lon="-5.926121"><ele>702.5</ele><time>2013-05-07T07:15:41Z</time></trkpt><trkpt lat="40.103416" lon="-5.926290"><ele>704.9</ele><time>2013-05-07T07:16:01Z</time></trkpt><trkpt lat="40.103401" lon="-5.926310"><ele>705.2</ele><time>2013-05-07T07:16:20Z</time></trkpt><trkpt lat="40.103287" lon="-5.926431"><ele>708.4</ele><time>2013-05-07T07:16:40Z</time></trkpt><trkpt lat="40.103245" lon="-5.926485"><ele>709.6</ele><time>2013-05-07T07:17:01Z</time></trkpt><trkpt lat="40.103100" lon="-5.926682"><ele>713.0</ele><time>2013-05-07T07:17:21Z</time></trkpt><trkpt lat="40.102951" lon="-5.926839"><ele>714.2</ele><time>2013-05-07T07:17:41Z</time></trkpt><trkpt lat="40.102802" lon="-5.926957"><ele>715.8</ele><time>2013-05-07T07:18:00Z</time></trkpt><trkpt lat="40.102798" lon="-5.926959"><ele>715.9</ele><time>2013-05-07T07:18:20Z</time></trkpt><trkpt lat="40.102741" lon="-5.926994"><ele>716.6</ele><time>2013-05-07T07:18:41Z</time></trkpt><trkpt lat="40.102703" lon="-5.927027"><ele>716.9</ele><time>2013-05-07T07:19:01Z</time></trkpt><trkpt lat="40.102558" lon="-5.927116"><ele>718.6</ele><time>2013-05-07T07:19:21Z</time></trkpt><trkpt lat="40.102425" lon="-5.927255"><ele>718.8</ele><time>2013-05-07T07:19:40Z</time></trkpt><trkpt lat="40.102264" lon="-5.927445"><ele>719.3</ele><time>2013-05-07T07:20:00Z</time></trkpt><trkpt lat="40.102116" lon="-5.927643"><ele>719.8</ele><time>2013-05-07T07:20:20Z</time></trkpt><trkpt lat="40.101952" lon="-5.927748"><ele>722.6</ele><time>2013-05-07T07:20:41Z</time></trkpt><trkpt lat="40.101910" lon="-5.927765"><ele>723.5</ele><time>2013-05-07T07:21:01Z</time></trkpt><trkpt lat="40.101700" lon="-5.927798"><ele>729.1</ele><time>2013-05-07T07:21:21Z</time></trkpt><trkpt lat="40.101547" lon="-5.927830"><ele>733.3</ele><time>2013-05-07T07:21:40Z</time></trkpt><trkpt lat="40.101391" lon="-5.927916"><ele>736.1</ele><time>2013-05-07T07:22:00Z</time></trkpt><trkpt lat="40.101234" lon="-5.927939"><ele>740.6</ele><time>2013-05-07T07:22:21Z</time></trkpt><trkpt lat="40.101086" lon="-5.927989"><ele>743.9</ele><time>2013-05-07T07:22:41Z</time></trkpt><trkpt lat="40.101040" lon="-5.928024"><ele>743.3</ele><time>2013-05-07T07:23:01Z</time></trkpt><trkpt lat="40.101007" lon="-5.928064"><ele>743.5</ele><time>2013-05-07T07:23:20Z</time></trkpt><trkpt lat="40.100895" lon="-5.928167"><ele>744.5</ele><time>2013-05-07T07:23:40Z</time></trkpt><trkpt lat="40.100861" lon="-5.928199"><ele>744.5</ele><time>2013-05-07T07:24:00Z</time></trkpt><trkpt lat="40.100782" lon="-5.928262"><ele>744.2</ele><time>2013-05-07T07:24:21Z</time></trkpt><trkpt lat="40.100695" lon="-5.928308"><ele>744.3</ele><time>2013-05-07T07:24:41Z</time></trkpt><trkpt lat="40.100540" lon="-5.928325"><ele>749.0</ele><time>2013-05-07T07:25:01Z</time></trkpt><trkpt lat="40.100483" lon="-5.928322"><ele>750.6</ele><time>2013-05-07T07:25:20Z</time></trkpt><trkpt lat="40.100347" lon="-5.928349"><ele>753.7</ele><time>2013-05-07T07:25:40Z</time></trkpt><trkpt lat="40.100174" lon="-5.928242"><ele>760.8</ele><time>2013-05-07T07:26:01Z</time></trkpt><trkpt lat="40.100101" lon="-5.928100"><ele>766.4</ele><time>2013-05-07T07:26:21Z</time></trkpt><trkpt lat="40.100014" lon="-5.928045"><ele>769.9</ele><time>2013-05-07T07:26:41Z</time></trkpt><trkpt lat="40.099937" lon="-5.928056"><ele>772.9</ele><time>2013-05-07T07:27:00Z</time></trkpt><trkpt lat="40.099899" lon="-5.928060"><ele>774.5</ele><time>2013-05-07T07:27:20Z</time></trkpt><trkpt lat="40.099899" lon="-5.928060"><ele>774.5</ele><time>2013-05-07T07:27:41Z</time></trkpt><trkpt lat="40.099873" lon="-5.928073"><ele>775.4</ele><time>2013-05-07T07:28:01Z</time></trkpt><trkpt lat="40.099800" lon="-5.928277"><ele>774.5</ele><time>2013-05-07T07:28:21Z</time></trkpt><trkpt lat="40.099773" lon="-5.928380"><ele>774.4</ele><time>2013-05-07T07:28:40Z</time></trkpt><trkpt lat="40.099777" lon="-5.928452"><ele>773.8</ele><time>2013-05-07T07:29:00Z</time></trkpt><trkpt lat="40.099801" lon="-5.928554"><ele>772.1</ele><time>2013-05-07T07:29:20Z</time></trkpt><trkpt lat="40.099797" lon="-5.928630"><ele>771.9</ele><time>2013-05-07T07:29:41Z</time></trkpt><trkpt lat="40.099842" lon="-5.928744"><ele>769.4</ele><time>2013-05-07T07:30:01Z</time></trkpt><trkpt lat="40.099911" lon="-5.928987"><ele>765.6</ele><time>2013-05-07T07:30:21Z</time></trkpt><trkpt lat="40.099915" lon="-5.929007"><ele>765.4</ele><time>2013-05-07T07:30:40Z</time></trkpt><trkpt lat="40.099926" lon="-5.929201"><ele>764.2</ele><time>2013-05-07T07:31:00Z</time></trkpt><trkpt lat="40.099980" lon="-5.929327"><ele>761.1</ele><time>2013-05-07T07:31:21Z</time></trkpt><trkpt lat="40.099973" lon="-5.929430"><ele>760.3</ele><time>2013-05-07T07:31:41Z</time></trkpt><trkpt lat="40.099929" lon="-5.929727"><ele>758.7</ele><time>2013-05-07T07:32:01Z</time></trkpt><trkpt lat="40.099847" lon="-5.929846"><ele>759.8</ele><time>2013-05-07T07:32:20Z</time></trkpt><trkpt lat="40.099785" lon="-5.929878"><ele>761.1</ele><time>2013-05-07T07:32:40Z</time></trkpt><trkpt lat="40.099583" lon="-5.929977"><ele>765.3</ele><time>2013-05-07T07:33:00Z</time></trkpt><trkpt lat="40.099392" lon="-5.929985"><ele>770.3</ele><time>2013-05-07T07:33:21Z</time></trkpt><trkpt lat="40.099178" lon="-5.930016"><ele>775.6</ele><time>2013-05-07T07:33:41Z</time></trkpt><trkpt lat="40.099033" lon="-5.930173"><ele>780.0</ele><time>2013-05-07T07:34:01Z</time></trkpt><trkpt lat="40.098988" lon="-5.930456"><ele>779.8</ele><time>2013-05-07T07:34:20Z</time></trkpt><trkpt lat="40.099003" lon="-5.930609"><ele>778.1</ele><time>2013-05-07T07:34:40Z</time></trkpt><trkpt lat="40.098988" lon="-5.930764"><ele>777.6</ele><time>2013-05-07T07:35:01Z</time></trkpt><trkpt lat="40.098984" lon="-5.930790"><ele>777.6</ele><time>2013-05-07T07:35:21Z</time></trkpt><trkpt lat="40.098927" lon="-5.931077"><ele>779.6</ele><time>2013-05-07T07:35:41Z</time></trkpt><trkpt lat="40.098923" lon="-5.931091"><ele>779.8</ele><time>2013-05-07T07:36:00Z</time></trkpt><trkpt lat="40.098923" lon="-5.931090"><ele>779.8</ele><time>2013-05-07T07:36:20Z</time></trkpt><trkpt lat="40.098934" lon="-5.931085"><ele>779.3</ele><time>2013-05-07T07:36:41Z</time></trkpt><trkpt lat="40.098938" lon="-5.931241"><ele>778.9</ele><time>2013-05-07T07:37:01Z</time></trkpt><trkpt lat="40.098953" lon="-5.931516"><ele>777.7</ele><time>2013-05-07T07:37:21Z</time></trkpt><trkpt lat="40.098919" lon="-5.931736"><ele>779.2</ele><time>2013-05-07T07:37:40Z</time></trkpt><trkpt lat="40.098907" lon="-5.931785"><ele>779.8</ele><time>2013-05-07T07:38:00Z</time></trkpt><trkpt lat="40.098873" lon="-5.931934"><ele>781.5</ele><time>2013-05-07T07:38:20Z</time></trkpt><trkpt lat="40.098858" lon="-5.931971"><ele>782.2</ele><time>2013-05-07T07:38:41Z</time></trkpt><trkpt lat="40.098858" lon="-5.932187"><ele>782.3</ele><time>2013-05-07T07:39:01Z</time></trkpt><trkpt lat="40.098816" lon="-5.932517"><ele>784.4</ele><time>2013-05-07T07:39:21Z</time></trkpt><trkpt lat="40.098765" lon="-5.932759"><ele>785.8</ele><time>2013-05-07T07:39:40Z</time></trkpt><trkpt lat="40.098750" lon="-5.932896"><ele>785.9</ele><time>2013-05-07T07:40:00Z</time></trkpt><trkpt lat="40.098746" lon="-5.933060"><ele>785.2</ele><time>2013-05-07T07:40:21Z</time></trkpt><trkpt lat="40.098698" lon="-5.933260"><ele>786.5</ele><time>2013-05-07T07:40:41Z</time></trkpt><trkpt lat="40.098679" lon="-5.933433"><ele>786.9</ele><time>2013-05-07T07:41:01Z</time></trkpt><trkpt lat="40.098663" lon="-5.933716"><ele>787.4</ele><time>2013-05-07T07:41:20Z</time></trkpt><trkpt lat="40.098667" lon="-5.933866"><ele>787.1</ele><time>2013-05-07T07:41:40Z</time></trkpt><trkpt lat="40.098648" lon="-5.934021"><ele>787.6</ele><time>2013-05-07T07:42:00Z</time></trkpt><trkpt lat="40.098621" lon="-5.934099"><ele>788.5</ele><time>2013-05-07T07:42:21Z</time></trkpt><trkpt lat="40.098499" lon="-5.934376"><ele>789.8</ele><time>2013-05-07T07:42:41Z</time></trkpt><trkpt lat="40.098381" lon="-5.934531"><ele>791.0</ele><time>2013-05-07T07:43:01Z</time></trkpt><trkpt lat="40.098343" lon="-5.934568"><ele>791.5</ele><time>2013-05-07T07:43:20Z</time></trkpt><trkpt lat="40.098255" lon="-5.934753"><ele>791.4</ele><time>2013-05-07T07:43:40Z</time></trkpt><trkpt lat="40.098150" lon="-5.934993"><ele>790.3</ele><time>2013-05-07T07:44:01Z</time></trkpt><trkpt lat="40.098047" lon="-5.935147"><ele>788.9</ele><time>2013-05-07T07:44:21Z</time></trkpt><trkpt lat="40.098020" lon="-5.935237"><ele>788.8</ele><time>2013-05-07T07:44:41Z</time></trkpt><trkpt lat="40.097958" lon="-5.935331"><ele>789.7</ele><time>2013-05-07T07:45:00Z</time></trkpt><trkpt lat="40.097790" lon="-5.935554"><ele>790.4</ele><time>2013-05-07T07:45:20Z</time></trkpt><trkpt lat="40.097652" lon="-5.935778"><ele>790.3</ele><time>2013-05-07T07:45:41Z</time></trkpt><trkpt lat="40.097511" lon="-5.936013"><ele>792.3</ele><time>2013-05-07T07:46:01Z</time></trkpt><trkpt lat="40.097382" lon="-5.936114"><ele>797.3</ele><time>2013-05-07T07:46:21Z</time></trkpt><trkpt lat="40.097334" lon="-5.936248"><ele>798.8</ele><time>2013-05-07T07:46:40Z</time></trkpt><trkpt lat="40.097339" lon="-5.936325"><ele>798.2</ele><time>2013-05-07T07:47:00Z</time></trkpt><trkpt lat="40.097376" lon="-5.936464"><ele>795.6</ele><time>2013-05-07T07:47:20Z</time></trkpt><trkpt lat="40.097401" lon="-5.936559"><ele>793.8</ele><time>2013-05-07T07:47:41Z</time></trkpt><trkpt lat="40.097412" lon="-5.936629"><ele>792.9</ele><time>2013-05-07T07:48:01Z</time></trkpt><trkpt lat="40.097443" lon="-5.936745"><ele>791.2</ele><time>2013-05-07T07:48:21Z</time></trkpt><trkpt lat="40.097462" lon="-5.936823"><ele>790.4</ele><time>2013-05-07T07:48:40Z</time></trkpt><trkpt lat="40.097511" lon="-5.937106"><ele>788.5</ele><time>2013-05-07T07:49:00Z</time></trkpt><trkpt lat="40.097538" lon="-5.937255"><ele>787.6</ele><time>2013-05-07T07:49:21Z</time></trkpt><trkpt lat="40.097565" lon="-5.937493"><ele>786.7</ele><time>2013-05-07T07:49:41Z</time></trkpt><trkpt lat="40.097559" lon="-5.937601"><ele>785.3</ele><time>2013-05-07T07:50:01Z</time></trkpt><trkpt lat="40.097546" lon="-5.937855"><ele>786.8</ele><time>2013-05-07T07:50:20Z</time></trkpt><trkpt lat="40.097526" lon="-5.938171"><ele>787.0</ele><time>2013-05-07T07:50:40Z</time></trkpt><trkpt lat="40.097524" lon="-5.938338"><ele>786.7</ele><time>2013-05-07T07:51:00Z</time></trkpt><trkpt lat="40.097516" lon="-5.938382"><ele>787.1</ele><time>2013-05-07T07:51:21Z</time></trkpt><trkpt lat="40.097519" lon="-5.938437"><ele>786.9</ele><time>2013-05-07T07:51:41Z</time></trkpt><trkpt lat="40.097515" lon="-5.938550"><ele>786.9</ele><time>2013-05-07T07:52:01Z</time></trkpt><trkpt lat="40.097504" lon="-5.938741"><ele>787.3</ele><time>2013-05-07T07:52:20Z</time></trkpt><trkpt lat="40.097530" lon="-5.938819"><ele>785.8</ele><time>2013-05-07T07:52:40Z</time></trkpt><trkpt lat="40.097525" lon="-5.938948"><ele>785.9</ele><time>2013-05-07T07:53:01Z</time></trkpt><trkpt lat="40.097510" lon="-5.939006"><ele>786.6</ele><time>2013-05-07T07:53:21Z</time></trkpt><trkpt lat="40.097528" lon="-5.939180"><ele>785.4</ele><time>2013-05-07T07:53:41Z</time></trkpt><trkpt lat="40.097551" lon="-5.939424"><ele>783.0</ele><time>2013-05-07T07:54:00Z</time></trkpt><trkpt lat="40.097542" lon="-5.939509"><ele>783.1</ele><time>2013-05-07T07:54:20Z</time></trkpt><trkpt lat="40.097526" lon="-5.939766"><ele>782.8</ele><time>2013-05-07T07:54:41Z</time></trkpt><trkpt lat="40.097485" lon="-5.939973"><ele>783.8</ele><time>2013-05-07T07:55:01Z</time></trkpt><trkpt lat="40.097446" lon="-5.940094"><ele>783.7</ele><time>2013-05-07T07:55:21Z</time></trkpt><trkpt lat="40.097378" lon="-5.940193"><ele>784.7</ele><time>2013-05-07T07:55:40Z</time></trkpt><trkpt lat="40.097233" lon="-5.940320"><ele>787.7</ele><time>2013-05-07T07:56:00Z</time></trkpt><trkpt lat="40.097202" lon="-5.940327"><ele>788.7</ele><time>2013-05-07T07:56:20Z</time></trkpt><trkpt lat="40.097034" lon="-5.940430"><ele>792.4</ele><time>2013-05-07T07:56:41Z</time></trkpt><trkpt lat="40.096851" lon="-5.940557"><ele>795.3</ele><time>2013-05-07T07:57:01Z</time></trkpt><trkpt lat="40.096695" lon="-5.940660"><ele>797.3</ele><time>2013-05-07T07:57:21Z</time></trkpt><trkpt lat="40.096638" lon="-5.940705"><ele>797.9</ele><time>2013-05-07T07:57:40Z</time></trkpt><trkpt lat="40.096413" lon="-5.940856"><ele>801.3</ele><time>2013-05-07T07:58:00Z</time></trkpt><trkpt lat="40.096233" lon="-5.941036"><ele>801.0</ele><time>2013-05-07T07:58:21Z</time></trkpt><trkpt lat="40.096157" lon="-5.941185"><ele>798.0</ele><time>2013-05-07T07:58:41Z</time></trkpt><trkpt lat="40.095993" lon="-5.941285"><ele>799.4</ele><time>2013-05-07T07:59:01Z</time></trkpt><trkpt lat="40.095848" lon="-5.941389"><ele>799.9</ele><time>2013-05-07T07:59:20Z</time></trkpt><trkpt lat="40.095699" lon="-5.941550"><ele>798.7</ele><time>2013-05-07T07:59:40Z</time></trkpt><trkpt lat="40.095536" lon="-5.941707"><ele>798.2</ele><time>2013-05-07T08:00:00Z</time></trkpt><trkpt lat="40.095418" lon="-5.941813"><ele>798.5</ele><time>2013-05-07T08:00:21Z</time></trkpt><trkpt lat="40.095217" lon="-5.941951"><ele>800.3</ele><time>2013-05-07T08:00:41Z</time></trkpt><trkpt lat="40.095133" lon="-5.941971"><ele>802.4</ele><time>2013-05-07T08:01:01Z</time></trkpt><trkpt lat="40.095009" lon="-5.942080"><ele>802.3</ele><time>2013-05-07T08:01:20Z</time></trkpt><trkpt lat="40.094982" lon="-5.942094"><ele>802.8</ele><time>2013-05-07T08:01:40Z</time></trkpt><trkpt lat="40.094849" lon="-5.942196"><ele>803.9</ele><time>2013-05-07T08:02:01Z</time></trkpt><trkpt lat="40.094696" lon="-5.942323"><ele>805.1</ele><time>2013-05-07T08:02:21Z</time></trkpt><trkpt lat="40.094608" lon="-5.942390"><ele>806.1</ele><time>2013-05-07T08:02:41Z</time></trkpt><trkpt lat="40.094536" lon="-5.942464"><ele>806.3</ele><time>2013-05-07T08:03:00Z</time></trkpt><trkpt lat="40.094528" lon="-5.942460"><ele>806.7</ele><time>2013-05-07T08:03:20Z</time></trkpt><trkpt lat="40.094528" lon="-5.942532"><ele>804.2</ele><time>2013-05-07T08:03:41Z</time></trkpt><trkpt lat="40.094414" lon="-5.942623"><ele>805.8</ele><time>2013-05-07T08:04:01Z</time></trkpt><trkpt lat="40.094257" lon="-5.942807"><ele>806.3</ele><time>2013-05-07T08:04:21Z</time></trkpt><trkpt lat="40.094223" lon="-5.942895"><ele>804.8</ele><time>2013-05-07T08:04:40Z</time></trkpt><trkpt lat="40.094143" lon="-5.942952"><ele>806.0</ele><time>2013-05-07T08:05:00Z</time></trkpt><trkpt lat="40.094051" lon="-5.943002"><ele>806.7</ele><time>2013-05-07T08:05:20Z</time></trkpt><trkpt lat="40.093918" lon="-5.943053"><ele>808.5</ele><time>2013-05-07T08:05:41Z</time></trkpt><trkpt lat="40.093800" lon="-5.943082"><ele>810.7</ele><time>2013-05-07T08:06:01Z</time></trkpt><trkpt lat="40.093758" lon="-5.943095"><ele>811.4</ele><time>2013-05-07T08:06:21Z</time></trkpt><trkpt lat="40.093620" lon="-5.943188"><ele>812.3</ele><time>2013-05-07T08:06:40Z</time></trkpt><trkpt lat="40.093456" lon="-5.943396"><ele>811.5</ele><time>2013-05-07T08:07:00Z</time></trkpt><trkpt lat="40.093365" lon="-5.943644"><ele>810.1</ele><time>2013-05-07T08:07:21Z</time></trkpt><trkpt lat="40.093254" lon="-5.943863"><ele>808.6</ele><time>2013-05-07T08:07:41Z</time></trkpt><trkpt lat="40.093105" lon="-5.944003"><ele>808.2</ele><time>2013-05-07T08:08:01Z</time></trkpt><trkpt lat="40.092953" lon="-5.944240"><ele>806.2</ele><time>2013-05-07T08:08:20Z</time></trkpt><trkpt lat="40.092823" lon="-5.944408"><ele>804.4</ele><time>2013-05-07T08:08:40Z</time></trkpt><trkpt lat="40.092651" lon="-5.944466"><ele>805.0</ele><time>2013-05-07T08:09:00Z</time></trkpt><trkpt lat="40.092579" lon="-5.944459"><ele>806.2</ele><time>2013-05-07T08:09:21Z</time></trkpt><trkpt lat="40.092589" lon="-5.944497"><ele>805.0</ele><time>2013-05-07T08:09:41Z</time></trkpt><trkpt lat="40.092663" lon="-5.944489"><ele>804.4</ele><time>2013-05-07T08:10:01Z</time></trkpt><trkpt lat="40.092846" lon="-5.944385"><ele>804.6</ele><time>2013-05-07T08:10:20Z</time></trkpt><trkpt lat="40.093002" lon="-5.944100"><ele>808.0</ele><time>2013-05-07T08:10:40Z</time></trkpt><trkpt lat="40.093098" lon="-5.943969"><ele>808.8</ele><time>2013-05-07T08:11:01Z</time></trkpt><trkpt lat="40.093208" lon="-5.943871"><ele>809.0</ele><time>2013-05-07T08:11:21Z</time></trkpt><trkpt lat="40.093311" lon="-5.943735"><ele>810.0</ele><time>2013-05-07T08:11:41Z</time></trkpt><trkpt lat="40.093315" lon="-5.943721"><ele>810.1</ele><time>2013-05-07T08:12:00Z</time></trkpt><trkpt lat="40.093342" lon="-5.943678"><ele>810.3</ele><time>2013-05-07T08:12:20Z</time></trkpt><trkpt lat="40.093418" lon="-5.943452"><ele>811.7</ele><time>2013-05-07T08:12:41Z</time></trkpt><trkpt lat="40.093521" lon="-5.943273"><ele>812.6</ele><time>2013-05-07T08:13:01Z</time></trkpt><trkpt lat="40.093658" lon="-5.943139"><ele>812.8</ele><time>2013-05-07T08:13:21Z</time></trkpt><trkpt lat="40.093803" lon="-5.943056"><ele>811.4</ele><time>2013-05-07T08:13:40Z</time></trkpt><trkpt lat="40.093987" lon="-5.943009"><ele>808.1</ele><time>2013-05-07T08:14:00Z</time></trkpt><trkpt lat="40.094162" lon="-5.942894"><ele>807.4</ele><time>2013-05-07T08:14:20Z</time></trkpt><trkpt lat="40.094234" lon="-5.942802"><ele>807.4</ele><time>2013-05-07T08:14:41Z</time></trkpt><trkpt lat="40.094284" lon="-5.942739"><ele>807.4</ele><time>2013-05-07T08:15:01Z</time></trkpt><trkpt lat="40.094284" lon="-5.942739"><ele>807.4</ele><time>2013-05-07T08:15:21Z</time></trkpt><trkpt lat="40.094311" lon="-5.942697"><ele>807.6</ele><time>2013-05-07T08:15:40Z</time></trkpt><trkpt lat="40.094444" lon="-5.942554"><ele>806.9</ele><time>2013-05-07T08:16:00Z</time></trkpt><trkpt lat="40.094551" lon="-5.942423"><ele>807.2</ele><time>2013-05-07T08:16:21Z</time></trkpt><trkpt lat="40.094734" lon="-5.942255"><ele>806.2</ele><time>2013-05-07T08:16:41Z</time></trkpt><trkpt lat="40.094872" lon="-5.942134"><ele>805.4</ele><time>2013-05-07T08:17:01Z</time></trkpt><trkpt lat="40.095036" lon="-5.941994"><ele>804.8</ele><time>2013-05-07T08:17:20Z</time></trkpt><trkpt lat="40.095196" lon="-5.941919"><ele>802.2</ele><time>2013-05-07T08:17:40Z</time></trkpt><trkpt lat="40.095352" lon="-5.941830"><ele>800.2</ele><time>2013-05-07T08:18:00Z</time></trkpt><trkpt lat="40.095516" lon="-5.941707"><ele>798.9</ele><time>2013-05-07T08:18:21Z</time></trkpt><trkpt lat="40.095634" lon="-5.941535"><ele>801.7</ele><time>2013-05-07T08:18:41Z</time></trkpt><trkpt lat="40.095814" lon="-5.941391"><ele>801.0</ele><time>2013-05-07T08:19:01Z</time></trkpt><trkpt lat="40.095959" lon="-5.941302"><ele>799.9</ele><time>2013-05-07T08:19:20Z</time></trkpt><trkpt lat="40.096130" lon="-5.941179"><ele>799.1</ele><time>2013-05-07T08:19:40Z</time></trkpt><trkpt lat="40.096264" lon="-5.940991"><ele>801.6</ele><time>2013-05-07T08:20:01Z</time></trkpt><trkpt lat="40.096390" lon="-5.940835"><ele>802.9</ele><time>2013-05-07T08:20:21Z</time></trkpt><trkpt lat="40.096470" lon="-5.940768"><ele>802.2</ele><time>2013-05-07T08:20:41Z</time></trkpt><trkpt lat="40.096546" lon="-5.940741"><ele>800.2</ele><time>2013-05-07T08:21:00Z</time></trkpt><trkpt lat="40.096573" lon="-5.940728"><ele>799.6</ele><time>2013-05-07T08:21:20Z</time></trkpt><trkpt lat="40.096741" lon="-5.940637"><ele>796.6</ele><time>2013-05-07T08:21:41Z</time></trkpt><trkpt lat="40.096916" lon="-5.940530"><ele>793.9</ele><time>2013-05-07T08:22:01Z</time></trkpt><trkpt lat="40.097046" lon="-5.940429"><ele>792.0</ele><time>2013-05-07T08:22:21Z</time></trkpt><trkpt lat="40.097187" lon="-5.940327"><ele>789.3</ele><time>2013-05-07T08:22:40Z</time></trkpt><trkpt lat="40.097336" lon="-5.940240"><ele>785.5</ele><time>2013-05-07T08:23:00Z</time></trkpt><trkpt lat="40.097359" lon="-5.940231"><ele>784.8</ele><time>2013-05-07T08:23:20Z</time></trkpt><trkpt lat="40.097374" lon="-5.940185"><ele>785.0</ele><time>2013-05-07T08:23:41Z</time></trkpt><trkpt lat="40.097409" lon="-5.940140"><ele>784.4</ele><time>2013-05-07T08:24:01Z</time></trkpt><trkpt lat="40.097453" lon="-5.940068"><ele>783.9</ele><time>2013-05-07T08:24:21Z</time></trkpt><trkpt lat="40.097454" lon="-5.940021"><ele>784.6</ele><time>2013-05-07T08:24:40Z</time></trkpt><trkpt lat="40.097469" lon="-5.939992"><ele>784.3</ele><time>2013-05-07T08:25:00Z</time></trkpt><trkpt lat="40.097534" lon="-5.939821"><ele>782.1</ele><time>2013-05-07T08:25:21Z</time></trkpt><trkpt lat="40.097542" lon="-5.939767"><ele>781.9</ele><time>2013-05-07T08:25:41Z</time></trkpt><trkpt lat="40.097542" lon="-5.939737"><ele>782.1</ele><time>2013-05-07T08:26:01Z</time></trkpt><trkpt lat="40.097553" lon="-5.939411"><ele>782.9</ele><time>2013-05-07T08:26:20Z</time></trkpt><trkpt lat="40.097546" lon="-5.939280"><ele>783.9</ele><time>2013-05-07T08:26:40Z</time></trkpt><trkpt lat="40.097557" lon="-5.939180"><ele>783.7</ele><time>2013-05-07T08:27:00Z</time></trkpt><trkpt lat="40.097557" lon="-5.938931"><ele>784.1</ele><time>2013-05-07T08:27:21Z</time></trkpt><trkpt lat="40.097546" lon="-5.938659"><ele>785.1</ele><time>2013-05-07T08:27:41Z</time></trkpt><trkpt lat="40.097542" lon="-5.938387"><ele>785.7</ele><time>2013-05-07T08:28:01Z</time></trkpt><trkpt lat="40.097549" lon="-5.938344"><ele>785.4</ele><time>2013-05-07T08:28:20Z</time></trkpt><trkpt lat="40.097545" lon="-5.938228"><ele>785.9</ele><time>2013-05-07T08:28:40Z</time></trkpt><trkpt lat="40.097534" lon="-5.937960"><ele>787.1</ele><time>2013-05-07T08:29:01Z</time></trkpt><trkpt lat="40.097558" lon="-5.937739"><ele>784.4</ele><time>2013-05-07T08:29:21Z</time></trkpt><trkpt lat="40.097577" lon="-5.937596"><ele>784.6</ele><time>2013-05-07T08:29:41Z</time></trkpt><trkpt lat="40.097557" lon="-5.937422"><ele>785.5</ele><time>2013-05-07T08:30:00Z</time></trkpt><trkpt lat="40.097526" lon="-5.937104"><ele>786.9</ele><time>2013-05-07T08:30:20Z</time></trkpt><trkpt lat="40.097490" lon="-5.936938"><ele>789.2</ele><time>2013-05-07T08:30:41Z</time></trkpt><trkpt lat="40.097457" lon="-5.936740"><ele>790.5</ele><time>2013-05-07T08:31:01Z</time></trkpt><trkpt lat="40.097434" lon="-5.936669"><ele>791.5</ele><time>2013-05-07T08:31:21Z</time></trkpt><trkpt lat="40.097405" lon="-5.936547"><ele>793.7</ele><time>2013-05-07T08:31:40Z</time></trkpt><trkpt lat="40.097349" lon="-5.936296"><ele>797.8</ele><time>2013-05-07T08:32:00Z</time></trkpt><trkpt lat="40.097370" lon="-5.936114"><ele>797.8</ele><time>2013-05-07T08:32:20Z</time></trkpt><trkpt lat="40.097378" lon="-5.936107"><ele>797.5</ele><time>2013-05-07T08:32:41Z</time></trkpt><trkpt lat="40.097519" lon="-5.935986"><ele>792.3</ele><time>2013-05-07T08:33:01Z</time></trkpt><trkpt lat="40.097534" lon="-5.935953"><ele>792.0</ele><time>2013-05-07T08:33:21Z</time></trkpt><trkpt lat="40.097561" lon="-5.935909"><ele>791.5</ele><time>2013-05-07T08:33:40Z</time></trkpt><trkpt lat="40.097656" lon="-5.935773"><ele>790.3</ele><time>2013-05-07T08:34:00Z</time></trkpt><trkpt lat="40.097740" lon="-5.935605"><ele>791.0</ele><time>2013-05-07T08:34:21Z</time></trkpt><trkpt lat="40.097843" lon="-5.935444"><ele>791.0</ele><time>2013-05-07T08:34:41Z</time></trkpt><trkpt lat="40.097900" lon="-5.935347"><ele>791.1</ele><time>2013-05-07T08:35:01Z</time></trkpt><trkpt lat="40.097908" lon="-5.935324"><ele>791.3</ele><time>2013-05-07T08:35:20Z</time></trkpt><trkpt lat="40.097954" lon="-5.935276"><ele>790.9</ele><time>2013-05-07T08:35:40Z</time></trkpt><trkpt lat="40.098087" lon="-5.935077"><ele>790.8</ele><time>2013-05-07T08:36:00Z</time></trkpt><trkpt lat="40.098095" lon="-5.935066"><ele>790.8</ele><time>2013-05-07T08:36:21Z</time></trkpt><trkpt lat="40.098175" lon="-5.934916"><ele>791.2</ele><time>2013-05-07T08:36:41Z</time></trkpt><trkpt lat="40.098278" lon="-5.934660"><ele>792.1</ele><time>2013-05-07T08:37:01Z</time></trkpt><trkpt lat="40.098362" lon="-5.934504"><ele>792.0</ele><time>2013-05-07T08:37:20Z</time></trkpt><trkpt lat="40.098377" lon="-5.934468"><ele>792.1</ele><time>2013-05-07T08:37:40Z</time></trkpt><trkpt lat="40.098366" lon="-5.934289"><ele>795.1</ele><time>2013-05-07T08:38:01Z</time></trkpt><trkpt lat="40.098381" lon="-5.934209"><ele>795.8</ele><time>2013-05-07T08:38:21Z</time></trkpt><trkpt lat="40.098412" lon="-5.934033"><ele>796.1</ele><time>2013-05-07T08:38:41Z</time></trkpt><trkpt lat="40.098450" lon="-5.933895"><ele>795.4</ele><time>2013-05-07T08:39:00Z</time></trkpt><trkpt lat="40.098465" lon="-5.933837"><ele>795.1</ele><time>2013-05-07T08:39:20Z</time></trkpt><trkpt lat="40.098446" lon="-5.933677"><ele>796.7</ele><time>2013-05-07T08:39:41Z</time></trkpt><trkpt lat="40.098442" lon="-5.933630"><ele>797.1</ele><time>2013-05-07T08:40:01Z</time></trkpt><trkpt lat="40.098442" lon="-5.933630"><ele>797.1</ele><time>2013-05-07T08:40:21Z</time></trkpt><trkpt lat="40.098408" lon="-5.933481"><ele>799.5</ele><time>2013-05-07T08:40:40Z</time></trkpt><trkpt lat="40.098404" lon="-5.933447"><ele>799.9</ele><time>2013-05-07T08:41:00Z</time></trkpt><trkpt lat="40.098408" lon="-5.933392"><ele>800.0</ele><time>2013-05-07T08:41:20Z</time></trkpt><trkpt lat="40.098415" lon="-5.933284"><ele>800.3</ele><time>2013-05-07T08:41:41Z</time></trkpt><trkpt lat="40.098351" lon="-5.933080"><ele>804.9</ele><time>2013-05-07T08:42:01Z</time></trkpt><trkpt lat="40.098297" lon="-5.932880"><ele>809.1</ele><time>2013-05-07T08:42:21Z</time></trkpt><trkpt lat="40.098293" lon="-5.932742"><ele>810.4</ele><time>2013-05-07T08:42:40Z</time></trkpt><trkpt lat="40.098264" lon="-5.932690"><ele>812.3</ele><time>2013-05-07T08:43:00Z</time></trkpt><trkpt lat="40.098232" lon="-5.932563"><ele>815.0</ele><time>2013-05-07T08:43:21Z</time></trkpt><trkpt lat="40.098217" lon="-5.932442"><ele>816.2</ele><time>2013-05-07T08:43:41Z</time></trkpt><trkpt lat="40.098236" lon="-5.932385"><ele>815.1</ele><time>2013-05-07T08:44:01Z</time></trkpt><trkpt lat="40.098156" lon="-5.932229"><ele>819.4</ele><time>2013-05-07T08:44:20Z</time></trkpt><trkpt lat="40.098156" lon="-5.932214"><ele>819.4</ele><time>2013-05-07T08:44:40Z</time></trkpt><trkpt lat="40.098118" lon="-5.932083"><ele>821.5</ele><time>2013-05-07T08:45:00Z</time></trkpt><trkpt lat="40.098110" lon="-5.932024"><ele>822.0</ele><time>2013-05-07T08:45:21Z</time></trkpt><trkpt lat="40.098070" lon="-5.931987"><ele>824.4</ele><time>2013-05-07T08:45:41Z</time></trkpt><trkpt lat="40.098054" lon="-5.931910"><ele>825.3</ele><time>2013-05-07T08:46:01Z</time></trkpt><trkpt lat="40.098022" lon="-5.931859"><ele>827.3</ele><time>2013-05-07T08:46:20Z</time></trkpt><trkpt lat="40.098016" lon="-5.931812"><ele>827.7</ele><time>2013-05-07T08:46:40Z</time></trkpt><trkpt lat="40.098003" lon="-5.931635"><ele>828.6</ele><time>2013-05-07T08:47:01Z</time></trkpt><trkpt lat="40.097934" lon="-5.931436"><ele>832.5</ele><time>2013-05-07T08:47:21Z</time></trkpt><trkpt lat="40.097912" lon="-5.931281"><ele>833.6</ele><time>2013-05-07T08:47:41Z</time></trkpt><trkpt lat="40.097908" lon="-5.931255"><ele>833.8</ele><time>2013-05-07T08:48:00Z</time></trkpt><trkpt lat="40.097904" lon="-5.931053"><ele>833.7</ele><time>2013-05-07T08:48:20Z</time></trkpt><trkpt lat="40.097897" lon="-5.930869"><ele>833.8</ele><time>2013-05-07T08:48:41Z</time></trkpt><trkpt lat="40.097908" lon="-5.930736"><ele>833.1</ele><time>2013-05-07T08:49:01Z</time></trkpt><trkpt lat="40.097893" lon="-5.930684"><ele>834.1</ele><time>2013-05-07T08:49:21Z</time></trkpt><trkpt lat="40.097881" lon="-5.930637"><ele>834.9</ele><time>2013-05-07T08:49:40Z</time></trkpt><trkpt lat="40.097897" lon="-5.930560"><ele>834.0</ele><time>2013-05-07T08:50:00Z</time></trkpt><trkpt lat="40.097881" lon="-5.930397"><ele>835.2</ele><time>2013-05-07T08:50:20Z</time></trkpt><trkpt lat="40.097851" lon="-5.930228"><ele>837.1</ele><time>2013-05-07T08:50:41Z</time></trkpt><trkpt lat="40.097808" lon="-5.930093"><ele>839.8</ele><time>2013-05-07T08:51:01Z</time></trkpt><trkpt lat="40.097791" lon="-5.930057"><ele>840.8</ele><time>2013-05-07T08:51:21Z</time></trkpt><trkpt lat="40.097767" lon="-5.929927"><ele>842.7</ele><time>2013-05-07T08:51:40Z</time></trkpt><trkpt lat="40.097739" lon="-5.929853"><ele>844.7</ele><time>2013-05-07T08:52:00Z</time></trkpt><trkpt lat="40.097719" lon="-5.929685"><ele>846.7</ele><time>2013-05-07T08:52:21Z</time></trkpt><trkpt lat="40.097674" lon="-5.929589"><ele>849.5</ele><time>2013-05-07T08:52:41Z</time></trkpt><trkpt lat="40.097651" lon="-5.929532"><ele>850.9</ele><time>2013-05-07T08:53:01Z</time></trkpt><trkpt lat="40.097626" lon="-5.929465"><ele>852.4</ele><time>2013-05-07T08:53:20Z</time></trkpt><trkpt lat="40.097580" lon="-5.929395"><ele>854.9</ele><time>2013-05-07T08:53:40Z</time></trkpt><trkpt lat="40.097580" lon="-5.929395"><ele>854.9</ele><time>2013-05-07T08:54:00Z</time></trkpt><trkpt lat="40.097561" lon="-5.929366"><ele>855.8</ele><time>2013-05-07T08:54:21Z</time></trkpt><trkpt lat="40.097473" lon="-5.929142"><ele>860.7</ele><time>2013-05-07T08:54:41Z</time></trkpt><trkpt lat="40.097519" lon="-5.929079"><ele>859.7</ele><time>2013-05-07T08:55:01Z</time></trkpt><trkpt lat="40.097561" lon="-5.929065"><ele>858.2</ele><time>2013-05-07T08:55:20Z</time></trkpt><trkpt lat="40.097672" lon="-5.929016"><ele>854.3</ele><time>2013-05-07T08:55:40Z</time></trkpt><trkpt lat="40.097786" lon="-5.928929"><ele>851.1</ele><time>2013-05-07T08:56:01Z</time></trkpt><trkpt lat="40.097843" lon="-5.928860"><ele>850.0</ele><time>2013-05-07T08:56:21Z</time></trkpt><trkpt lat="40.097908" lon="-5.928742"><ele>849.8</ele><time>2013-05-07T08:56:41Z</time></trkpt><trkpt lat="40.097984" lon="-5.928591"><ele>849.9</ele><time>2013-05-07T08:57:00Z</time></trkpt><trkpt lat="40.098022" lon="-5.928535"><ele>849.6</ele><time>2013-05-07T08:57:20Z</time></trkpt><trkpt lat="40.098141" lon="-5.928401"><ele>847.9</ele><time>2013-05-07T08:57:41Z</time></trkpt><trkpt lat="40.098152" lon="-5.928371"><ele>848.1</ele><time>2013-05-07T08:58:01Z</time></trkpt><trkpt lat="40.098232" lon="-5.928202"><ele>848.2</ele><time>2013-05-07T08:58:21Z</time></trkpt><trkpt lat="40.098244" lon="-5.928007"><ele>851.1</ele><time>2013-05-07T08:58:40Z</time></trkpt><trkpt lat="40.098263" lon="-5.927894"><ele>852.3</ele><time>2013-05-07T08:59:00Z</time></trkpt><trkpt lat="40.098255" lon="-5.927666"><ele>856.6</ele><time>2013-05-07T08:59:20Z</time></trkpt><trkpt lat="40.098248" lon="-5.927545"><ele>859.0</ele><time>2013-05-07T08:59:41Z</time></trkpt><trkpt lat="40.098240" lon="-5.927455"><ele>860.0</ele><time>2013-05-07T09:00:01Z</time></trkpt><trkpt lat="40.098228" lon="-5.927377"><ele>860.3</ele><time>2013-05-07T09:00:21Z</time></trkpt><trkpt lat="40.098190" lon="-5.927176"><ele>861.4</ele><time>2013-05-07T09:00:40Z</time></trkpt><trkpt lat="40.098148" lon="-5.927031"><ele>863.1</ele><time>2013-05-07T09:01:00Z</time></trkpt><trkpt lat="40.098125" lon="-5.926860"><ele>863.9</ele><time>2013-05-07T09:01:21Z</time></trkpt><trkpt lat="40.098072" lon="-5.926713"><ele>866.5</ele><time>2013-05-07T09:01:41Z</time></trkpt><trkpt lat="40.098026" lon="-5.926542"><ele>868.7</ele><time>2013-05-07T09:02:01Z</time></trkpt><trkpt lat="40.097992" lon="-5.926380"><ele>870.1</ele><time>2013-05-07T09:02:20Z</time></trkpt><trkpt lat="40.097984" lon="-5.926367"><ele>870.4</ele><time>2013-05-07T09:02:40Z</time></trkpt><trkpt lat="40.097965" lon="-5.926288"><ele>871.2</ele><time>2013-05-07T09:03:00Z</time></trkpt><trkpt lat="40.097923" lon="-5.926178"><ele>872.9</ele><time>2013-05-07T09:03:21Z</time></trkpt><trkpt lat="40.097900" lon="-5.926110"><ele>873.8</ele><time>2013-05-07T09:03:41Z</time></trkpt><trkpt lat="40.097836" lon="-5.925920"><ele>876.1</ele><time>2013-05-07T09:04:01Z</time></trkpt><trkpt lat="40.097820" lon="-5.925879"><ele>876.6</ele><time>2013-05-07T09:04:20Z</time></trkpt><trkpt lat="40.097733" lon="-5.925707"><ele>880.3</ele><time>2013-05-07T09:04:40Z</time></trkpt><trkpt lat="40.097656" lon="-5.925617"><ele>883.2</ele><time>2013-05-07T09:05:01Z</time></trkpt><trkpt lat="40.097618" lon="-5.925566"><ele>884.4</ele><time>2013-05-07T09:05:21Z</time></trkpt><trkpt lat="40.097477" lon="-5.925444"><ele>888.6</ele><time>2013-05-07T09:05:41Z</time></trkpt><trkpt lat="40.097336" lon="-5.925318"><ele>892.9</ele><time>2013-05-07T09:06:00Z</time></trkpt><trkpt lat="40.097271" lon="-5.925231"><ele>894.6</ele><time>2013-05-07T09:06:20Z</time></trkpt><trkpt lat="40.097233" lon="-5.924987"><ele>894.1</ele><time>2013-05-07T09:06:41Z</time></trkpt><trkpt lat="40.097271" lon="-5.924953"><ele>893.3</ele><time>2013-05-07T09:07:01Z</time></trkpt><trkpt lat="40.097427" lon="-5.924909"><ele>888.3</ele><time>2013-05-07T09:07:21Z</time></trkpt><trkpt lat="40.097416" lon="-5.924917"><ele>888.6</ele><time>2013-05-07T09:07:40Z</time></trkpt><trkpt lat="40.097481" lon="-5.924909"><ele>886.3</ele><time>2013-05-07T09:08:00Z</time></trkpt><trkpt lat="40.097649" lon="-5.924823"><ele>884.4</ele><time>2013-05-07T09:08:20Z</time></trkpt><trkpt lat="40.097824" lon="-5.924643"><ele>883.9</ele><time>2013-05-07T09:08:41Z</time></trkpt><trkpt lat="40.097866" lon="-5.924603"><ele>883.7</ele><time>2013-05-07T09:09:01Z</time></trkpt><trkpt lat="40.098034" lon="-5.924590"><ele>880.5</ele><time>2013-05-07T09:09:21Z</time></trkpt><trkpt lat="40.098076" lon="-5.924609"><ele>879.4</ele><time>2013-05-07T09:09:40Z</time></trkpt><trkpt lat="40.098118" lon="-5.924649"><ele>877.9</ele><time>2013-05-07T09:10:00Z</time></trkpt><trkpt lat="40.098289" lon="-5.924785"><ele>872.7</ele><time>2013-05-07T09:10:21Z</time></trkpt><trkpt lat="40.098465" lon="-5.924821"><ele>869.8</ele><time>2013-05-07T09:10:41Z</time></trkpt><trkpt lat="40.098644" lon="-5.924752"><ele>868.4</ele><time>2013-05-07T09:11:01Z</time></trkpt><trkpt lat="40.098808" lon="-5.924677"><ele>866.9</ele><time>2013-05-07T09:11:20Z</time></trkpt><trkpt lat="40.099022" lon="-5.924660"><ele>864.2</ele><time>2013-05-07T09:11:40Z</time></trkpt><trkpt lat="40.099167" lon="-5.924694"><ele>862.1</ele><time>2013-05-07T09:12:00Z</time></trkpt><trkpt lat="40.099289" lon="-5.924726"><ele>860.7</ele><time>2013-05-07T09:12:21Z</time></trkpt><trkpt lat="40.099396" lon="-5.924713"><ele>859.6</ele><time>2013-05-07T09:12:41Z</time></trkpt><trkpt lat="40.099541" lon="-5.924640"><ele>858.3</ele><time>2013-05-07T09:13:01Z</time></trkpt><trkpt lat="40.099571" lon="-5.924492"><ele>858.5</ele><time>2013-05-07T09:13:20Z</time></trkpt><trkpt lat="40.099575" lon="-5.924455"><ele>858.6</ele><time>2013-05-07T09:13:40Z</time></trkpt><trkpt lat="40.099411" lon="-5.924317"><ele>860.8</ele><time>2013-05-07T09:14:01Z</time></trkpt><trkpt lat="40.099361" lon="-5.924295"><ele>861.4</ele><time>2013-05-07T09:14:21Z</time></trkpt><trkpt lat="40.099270" lon="-5.924248"><ele>862.6</ele><time>2013-05-07T09:14:41Z</time></trkpt><trkpt lat="40.099232" lon="-5.924209"><ele>863.1</ele><time>2013-05-07T09:15:00Z</time></trkpt><trkpt lat="40.099159" lon="-5.924181"><ele>864.1</ele><time>2013-05-07T09:15:20Z</time></trkpt><trkpt lat="40.099121" lon="-5.924124"><ele>864.7</ele><time>2013-05-07T09:15:41Z</time></trkpt><trkpt lat="40.098976" lon="-5.923987"><ele>867.4</ele><time>2013-05-07T09:16:01Z</time></trkpt><trkpt lat="40.098927" lon="-5.923913"><ele>868.4</ele><time>2013-05-07T09:16:21Z</time></trkpt><trkpt lat="40.098927" lon="-5.923859"><ele>868.3</ele><time>2013-05-07T09:16:40Z</time></trkpt><trkpt lat="40.098972" lon="-5.923793"><ele>867.2</ele><time>2013-05-07T09:17:00Z</time></trkpt><trkpt lat="40.099060" lon="-5.923755"><ele>865.1</ele><time>2013-05-07T09:17:20Z</time></trkpt><trkpt lat="40.099190" lon="-5.923642"><ele>861.6</ele><time>2013-05-07T09:17:41Z</time></trkpt><trkpt lat="40.099190" lon="-5.923636"><ele>861.6</ele><time>2013-05-07T09:18:01Z</time></trkpt><trkpt lat="40.099308" lon="-5.923440"><ele>857.8</ele><time>2013-05-07T09:18:21Z</time></trkpt><trkpt lat="40.099331" lon="-5.923398"><ele>856.9</ele><time>2013-05-07T09:18:40Z</time></trkpt><trkpt lat="40.099335" lon="-5.923288"><ele>856.4</ele><time>2013-05-07T09:19:00Z</time></trkpt><trkpt lat="40.099318" lon="-5.923074"><ele>857.4</ele><time>2013-05-07T09:19:21Z</time></trkpt><trkpt lat="40.099396" lon="-5.922879"><ele>854.8</ele><time>2013-05-07T09:19:41Z</time></trkpt><trkpt lat="40.099392" lon="-5.922748"><ele>855.1</ele><time>2013-05-07T09:20:01Z</time></trkpt><trkpt lat="40.099415" lon="-5.922658"><ele>854.1</ele><time>2013-05-07T09:20:20Z</time></trkpt><trkpt lat="40.099411" lon="-5.922637"><ele>854.3</ele><time>2013-05-07T09:20:40Z</time></trkpt><trkpt lat="40.099458" lon="-5.922434"><ele>852.9</ele><time>2013-05-07T09:21:00Z</time></trkpt><trkpt lat="40.099514" lon="-5.922218"><ele>852.8</ele><time>2013-05-07T09:21:21Z</time></trkpt><trkpt lat="40.099533" lon="-5.922186"><ele>852.3</ele><time>2013-05-07T09:21:41Z</time></trkpt><trkpt lat="40.099558" lon="-5.922066"><ele>850.2</ele><time>2013-05-07T09:22:01Z</time></trkpt><trkpt lat="40.099569" lon="-5.921985"><ele>850.2</ele><time>2013-05-07T09:22:20Z</time></trkpt><trkpt lat="40.099575" lon="-5.921912"><ele>850.6</ele><time>2013-05-07T09:22:40Z</time></trkpt><trkpt lat="40.099588" lon="-5.921851"><ele>851.3</ele><time>2013-05-07T09:23:01Z</time></trkpt><trkpt lat="40.099586" lon="-5.921790"><ele>854.4</ele><time>2013-05-07T09:23:21Z</time></trkpt><trkpt lat="40.099594" lon="-5.921748"><ele>854.5</ele><time>2013-05-07T09:23:41Z</time></trkpt><trkpt lat="40.099598" lon="-5.921667"><ele>855.2</ele><time>2013-05-07T09:24:00Z</time></trkpt><trkpt lat="40.099575" lon="-5.921544"><ele>858.9</ele><time>2013-05-07T09:24:20Z</time></trkpt><trkpt lat="40.099602" lon="-5.921476"><ele>858.8</ele><time>2013-05-07T09:24:41Z</time></trkpt><trkpt lat="40.099636" lon="-5.921417"><ele>858.3</ele><time>2013-05-07T09:25:01Z</time></trkpt><trkpt lat="40.099686" lon="-5.921359"><ele>857.0</ele><time>2013-05-07T09:25:21Z</time></trkpt><trkpt lat="40.099709" lon="-5.921287"><ele>857.4</ele><time>2013-05-07T09:25:40Z</time></trkpt><trkpt lat="40.099739" lon="-5.921259"><ele>856.5</ele><time>2013-05-07T09:26:00Z</time></trkpt><trkpt lat="40.099831" lon="-5.921181"><ele>853.8</ele><time>2013-05-07T09:26:20Z</time></trkpt><trkpt lat="40.099842" lon="-5.921171"><ele>853.4</ele><time>2013-05-07T09:26:41Z</time></trkpt><trkpt lat="40.099823" lon="-5.921196"><ele>853.8</ele><time>2013-05-07T09:27:01Z</time></trkpt><trkpt lat="40.099850" lon="-5.921168"><ele>853.1</ele><time>2013-05-07T09:27:21Z</time></trkpt><trkpt lat="40.099850" lon="-5.921168"><ele>853.1</ele><time>2013-05-07T09:27:40Z</time></trkpt><trkpt lat="40.099865" lon="-5.921144"><ele>853.0</ele><time>2013-05-07T09:28:00Z</time></trkpt><trkpt lat="40.099907" lon="-5.921105"><ele>851.9</ele><time>2013-05-07T09:28:21Z</time></trkpt><trkpt lat="40.099968" lon="-5.921080"><ele>849.6</ele><time>2013-05-07T09:28:41Z</time></trkpt><trkpt lat="40.100006" lon="-5.921058"><ele>848.4</ele><time>2013-05-07T09:29:01Z</time></trkpt><trkpt lat="40.100056" lon="-5.921031"><ele>847.3</ele><time>2013-05-07T09:29:20Z</time></trkpt><trkpt lat="40.100094" lon="-5.920995"><ele>846.8</ele><time>2013-05-07T09:29:40Z</time></trkpt><trkpt lat="40.100256" lon="-5.920879"><ele>841.6</ele><time>2013-05-07T09:30:00Z</time></trkpt><trkpt lat="40.100342" lon="-5.920803"><ele>842.2</ele><time>2013-05-07T09:30:21Z</time></trkpt><trkpt lat="40.100418" lon="-5.920763"><ele>840.0</ele><time>2013-05-07T09:30:41Z</time></trkpt><trkpt lat="40.100430" lon="-5.920761"><ele>839.7</ele><time>2013-05-07T09:31:01Z</time></trkpt><trkpt lat="40.100456" lon="-5.920743"><ele>839.0</ele><time>2013-05-07T09:31:20Z</time></trkpt><trkpt lat="40.100567" lon="-5.920632"><ele>836.8</ele><time>2013-05-07T09:31:40Z</time></trkpt><trkpt lat="40.100647" lon="-5.920575"><ele>834.9</ele><time>2013-05-07T09:32:01Z</time></trkpt><trkpt lat="40.100792" lon="-5.920419"><ele>832.4</ele><time>2013-05-07T09:32:21Z</time></trkpt><trkpt lat="40.100838" lon="-5.920357"><ele>831.9</ele><time>2013-05-07T09:32:41Z</time></trkpt><trkpt lat="40.100971" lon="-5.920202"><ele>830.3</ele><time>2013-05-07T09:33:00Z</time></trkpt><trkpt lat="40.101040" lon="-5.920066"><ele>830.3</ele><time>2013-05-07T09:33:20Z</time></trkpt><trkpt lat="40.101036" lon="-5.919935"><ele>831.6</ele><time>2013-05-07T09:33:41Z</time></trkpt><trkpt lat="40.101044" lon="-5.919896"><ele>831.4</ele><time>2013-05-07T09:34:01Z</time></trkpt><trkpt lat="40.101051" lon="-5.919874"><ele>831.2</ele><time>2013-05-07T09:34:21Z</time></trkpt><trkpt lat="40.101074" lon="-5.919761"><ele>830.7</ele><time>2013-05-07T09:34:40Z</time></trkpt><trkpt lat="40.101078" lon="-5.919658"><ele>830.8</ele><time>2013-05-07T09:35:00Z</time></trkpt><trkpt lat="40.101036" lon="-5.919545"><ele>832.5</ele><time>2013-05-07T09:35:20Z</time></trkpt><trkpt lat="40.100937" lon="-5.919346"><ele>836.6</ele><time>2013-05-07T09:35:41Z</time></trkpt><trkpt lat="40.100933" lon="-5.919332"><ele>836.8</ele><time>2013-05-07T09:36:01Z</time></trkpt><trkpt lat="40.100945" lon="-5.919263"><ele>836.6</ele><time>2013-05-07T09:36:21Z</time></trkpt><trkpt lat="40.100967" lon="-5.919218"><ele>835.9</ele><time>2013-05-07T09:36:40Z</time></trkpt><trkpt lat="40.101009" lon="-5.919176"><ele>834.4</ele><time>2013-05-07T09:37:00Z</time></trkpt><trkpt lat="40.101077" lon="-5.919044"><ele>831.3</ele><time>2013-05-07T09:37:21Z</time></trkpt><trkpt lat="40.101137" lon="-5.918920"><ele>830.2</ele><time>2013-05-07T09:37:41Z</time></trkpt><trkpt lat="40.101195" lon="-5.918773"><ele>831.3</ele><time>2013-05-07T09:38:01Z</time></trkpt><trkpt lat="40.101222" lon="-5.918689"><ele>830.4</ele><time>2013-05-07T09:38:20Z</time></trkpt><trkpt lat="40.101247" lon="-5.918579"><ele>829.3</ele><time>2013-05-07T09:38:40Z</time></trkpt><trkpt lat="40.101264" lon="-5.918524"><ele>829.5</ele><time>2013-05-07T09:39:00Z</time></trkpt><trkpt lat="40.101276" lon="-5.918477"><ele>829.3</ele><time>2013-05-07T09:39:21Z</time></trkpt><trkpt lat="40.101291" lon="-5.918419"><ele>828.8</ele><time>2013-05-07T09:39:41Z</time></trkpt><trkpt lat="40.101344" lon="-5.918287"><ele>827.1</ele><time>2013-05-07T09:40:01Z</time></trkpt><trkpt lat="40.101395" lon="-5.918187"><ele>825.5</ele><time>2013-05-07T09:40:20Z</time></trkpt><trkpt lat="40.101456" lon="-5.918069"><ele>822.0</ele><time>2013-05-07T09:40:40Z</time></trkpt><trkpt lat="40.101504" lon="-5.917927"><ele>818.7</ele><time>2013-05-07T09:41:01Z</time></trkpt><trkpt lat="40.101543" lon="-5.917816"><ele>818.4</ele><time>2013-05-07T09:41:21Z</time></trkpt><trkpt lat="40.101542" lon="-5.917756"><ele>817.8</ele><time>2013-05-07T09:41:41Z</time></trkpt><trkpt lat="40.101555" lon="-5.917556"><ele>817.1</ele><time>2013-05-07T09:42:00Z</time></trkpt><trkpt lat="40.101562" lon="-5.917480"><ele>816.6</ele><time>2013-05-07T09:42:20Z</time></trkpt><trkpt lat="40.101547" lon="-5.917391"><ele>817.1</ele><time>2013-05-07T09:42:41Z</time></trkpt><trkpt lat="40.101486" lon="-5.917135"><ele>818.9</ele><time>2013-05-07T09:43:01Z</time></trkpt><trkpt lat="40.101406" lon="-5.916880"><ele>821.2</ele><time>2013-05-07T09:43:21Z</time></trkpt><trkpt lat="40.101364" lon="-5.916728"><ele>822.2</ele><time>2013-05-07T09:43:40Z</time></trkpt><trkpt lat="40.101303" lon="-5.916669"><ele>824.1</ele><time>2013-05-07T09:44:00Z</time></trkpt><trkpt lat="40.101280" lon="-5.916587"><ele>826.1</ele><time>2013-05-07T09:44:20Z</time></trkpt><trkpt lat="40.101303" lon="-5.916440"><ele>827.6</ele><time>2013-05-07T09:44:41Z</time></trkpt><trkpt lat="40.101303" lon="-5.916440"><ele>827.6</ele><time>2013-05-07T09:45:01Z</time></trkpt><trkpt lat="40.101395" lon="-5.916435"><ele>825.0</ele><time>2013-05-07T09:45:21Z</time></trkpt><trkpt lat="40.101624" lon="-5.916402"><ele>819.2</ele><time>2013-05-07T09:45:40Z</time></trkpt><trkpt lat="40.101860" lon="-5.916343"><ele>813.0</ele><time>2013-05-07T09:46:00Z</time></trkpt><trkpt lat="40.102039" lon="-5.916224"><ele>809.9</ele><time>2013-05-07T09:46:21Z</time></trkpt><trkpt lat="40.102112" lon="-5.916153"><ele>809.3</ele><time>2013-05-07T09:46:41Z</time></trkpt><trkpt lat="40.102142" lon="-5.916116"><ele>809.2</ele><time>2013-05-07T09:47:01Z</time></trkpt><trkpt lat="40.102188" lon="-5.916083"><ele>808.5</ele><time>2013-05-07T09:47:20Z</time></trkpt><trkpt lat="40.102342" lon="-5.915954"><ele>806.4</ele><time>2013-05-07T09:47:40Z</time></trkpt><trkpt lat="40.102411" lon="-5.915825"><ele>807.2</ele><time>2013-05-07T09:48:00Z</time></trkpt><trkpt lat="40.102447" lon="-5.915730"><ele>807.2</ele><time>2013-05-07T09:48:21Z</time></trkpt><trkpt lat="40.102496" lon="-5.915638"><ele>806.7</ele><time>2013-05-07T09:48:41Z</time></trkpt><trkpt lat="40.102535" lon="-5.915546"><ele>806.8</ele><time>2013-05-07T09:49:01Z</time></trkpt><trkpt lat="40.102566" lon="-5.915452"><ele>807.2</ele><time>2013-05-07T09:49:20Z</time></trkpt><trkpt lat="40.102642" lon="-5.915362"><ele>806.0</ele><time>2013-05-07T09:49:40Z</time></trkpt><trkpt lat="40.102730" lon="-5.915123"><ele>805.8</ele><time>2013-05-07T09:50:01Z</time></trkpt><trkpt lat="40.102751" lon="-5.915021"><ele>806.1</ele><time>2013-05-07T09:50:21Z</time></trkpt><trkpt lat="40.102754" lon="-5.914975"><ele>806.0</ele><time>2013-05-07T09:50:41Z</time></trkpt><trkpt lat="40.102764" lon="-5.914937"><ele>805.4</ele><time>2013-05-07T09:51:00Z</time></trkpt><trkpt lat="40.102776" lon="-5.914815"><ele>804.2</ele><time>2013-05-07T09:51:20Z</time></trkpt><trkpt lat="40.102734" lon="-5.914607"><ele>804.4</ele><time>2013-05-07T09:51:41Z</time></trkpt><trkpt lat="40.102718" lon="-5.914575"><ele>804.7</ele><time>2013-05-07T09:52:01Z</time></trkpt><trkpt lat="40.102695" lon="-5.914489"><ele>805.0</ele><time>2013-05-07T09:52:21Z</time></trkpt><trkpt lat="40.102650" lon="-5.914378"><ele>805.9</ele><time>2013-05-07T09:52:40Z</time></trkpt><trkpt lat="40.102608" lon="-5.914202"><ele>806.3</ele><time>2013-05-07T09:53:00Z</time></trkpt><trkpt lat="40.102554" lon="-5.914057"><ele>806.1</ele><time>2013-05-07T09:53:20Z</time></trkpt><trkpt lat="40.102482" lon="-5.913872"><ele>805.5</ele><time>2013-05-07T09:53:41Z</time></trkpt><trkpt lat="40.102379" lon="-5.913674"><ele>806.7</ele><time>2013-05-07T09:54:01Z</time></trkpt><trkpt lat="40.102295" lon="-5.913459"><ele>806.8</ele><time>2013-05-07T09:54:21Z</time></trkpt><trkpt lat="40.102248" lon="-5.913240"><ele>805.4</ele><time>2013-05-07T09:54:40Z</time></trkpt><trkpt lat="40.102257" lon="-5.913055"><ele>802.3</ele><time>2013-05-07T09:55:00Z</time></trkpt><trkpt lat="40.102257" lon="-5.913050"><ele>802.2</ele><time>2013-05-07T09:55:21Z</time></trkpt><trkpt lat="40.102253" lon="-5.913021"><ele>802.0</ele><time>2013-05-07T09:55:41Z</time></trkpt><trkpt lat="40.102245" lon="-5.912947"><ele>801.3</ele><time>2013-05-07T09:56:01Z</time></trkpt><trkpt lat="40.102249" lon="-5.912893"><ele>800.4</ele><time>2013-05-07T09:56:20Z</time></trkpt><trkpt lat="40.102249" lon="-5.912893"><ele>800.4</ele><time>2013-05-07T09:56:40Z</time></trkpt><trkpt lat="40.102238" lon="-5.912854"><ele>800.3</ele><time>2013-05-07T09:57:00Z</time></trkpt><trkpt lat="40.102146" lon="-5.912619"><ele>801.5</ele><time>2013-05-07T09:57:21Z</time></trkpt><trkpt lat="40.102131" lon="-5.912594"><ele>801.9</ele><time>2013-05-07T09:57:41Z</time></trkpt><trkpt lat="40.102112" lon="-5.912564"><ele>802.4</ele><time>2013-05-07T09:58:01Z</time></trkpt><trkpt lat="40.102108" lon="-5.912548"><ele>802.4</ele><time>2013-05-07T09:58:20Z</time></trkpt><trkpt lat="40.102051" lon="-5.912431"><ele>803.3</ele><time>2013-05-07T09:58:40Z</time></trkpt><trkpt lat="40.102024" lon="-5.912386"><ele>803.8</ele><time>2013-05-07T09:59:01Z</time></trkpt><trkpt lat="40.102020" lon="-5.912379"><ele>803.9</ele><time>2013-05-07T09:59:21Z</time></trkpt><trkpt lat="40.102001" lon="-5.912355"><ele>804.4</ele><time>2013-05-07T09:59:41Z</time></trkpt><trkpt lat="40.101982" lon="-5.912276"><ele>803.8</ele><time>2013-05-07T10:00:00Z</time></trkpt><trkpt lat="40.101967" lon="-5.912248"><ele>804.0</ele><time>2013-05-07T10:00:20Z</time></trkpt><trkpt lat="40.101882" lon="-5.912128"><ele>806.0</ele><time>2013-05-07T10:00:41Z</time></trkpt><trkpt lat="40.101775" lon="-5.911912"><ele>807.3</ele><time>2013-05-07T10:01:01Z</time></trkpt><trkpt lat="40.101685" lon="-5.911705"><ele>807.8</ele><time>2013-05-07T10:01:21Z</time></trkpt><trkpt lat="40.101542" lon="-5.911518"><ele>809.2</ele><time>2013-05-07T10:01:40Z</time></trkpt><trkpt lat="40.101402" lon="-5.911328"><ele>809.9</ele><time>2013-05-07T10:02:00Z</time></trkpt><trkpt lat="40.101307" lon="-5.911180"><ele>810.0</ele><time>2013-05-07T10:02:20Z</time></trkpt><trkpt lat="40.101192" lon="-5.911047"><ele>811.2</ele><time>2013-05-07T10:02:41Z</time></trkpt><trkpt lat="40.101017" lon="-5.910971"><ele>816.2</ele><time>2013-05-07T10:03:01Z</time></trkpt><trkpt lat="40.100919" lon="-5.910832"><ele>816.6</ele><time>2013-05-07T10:03:21Z</time></trkpt><trkpt lat="40.101055" lon="-5.910618"><ele>812.2</ele><time>2013-05-07T10:03:40Z</time></trkpt><trkpt lat="40.101107" lon="-5.910529"><ele>810.8</ele><time>2013-05-07T10:04:00Z</time></trkpt><trkpt lat="40.101118" lon="-5.910445"><ele>810.9</ele><time>2013-05-07T10:04:21Z</time></trkpt><trkpt lat="40.101113" lon="-5.910397"><ele>811.4</ele><time>2013-05-07T10:04:41Z</time></trkpt><trkpt lat="40.101122" lon="-5.910316"><ele>811.6</ele><time>2013-05-07T10:05:01Z</time></trkpt><trkpt lat="40.101116" lon="-5.910264"><ele>812.0</ele><time>2013-05-07T10:05:20Z</time></trkpt><trkpt lat="40.101086" lon="-5.910021"><ele>814.2</ele><time>2013-05-07T10:05:40Z</time></trkpt><trkpt lat="40.101078" lon="-5.909859"><ele>817.3</ele><time>2013-05-07T10:06:00Z</time></trkpt><trkpt lat="40.101051" lon="-5.909645"><ele>821.9</ele><time>2013-05-07T10:06:21Z</time></trkpt><trkpt lat="40.101118" lon="-5.909577"><ele>822.0</ele><time>2013-05-07T10:06:41Z</time></trkpt><trkpt lat="40.101196" lon="-5.909564"><ele>820.9</ele><time>2013-05-07T10:07:01Z</time></trkpt><trkpt lat="40.101215" lon="-5.909580"><ele>820.2</ele><time>2013-05-07T10:07:20Z</time></trkpt><trkpt lat="40.101234" lon="-5.909607"><ele>819.3</ele><time>2013-05-07T10:07:40Z</time></trkpt><trkpt lat="40.101378" lon="-5.909596"><ele>816.9</ele><time>2013-05-07T10:08:01Z</time></trkpt><trkpt lat="40.101430" lon="-5.909605"><ele>815.7</ele><time>2013-05-07T10:08:21Z</time></trkpt><trkpt lat="40.101496" lon="-5.909596"><ele>814.7</ele><time>2013-05-07T10:08:41Z</time></trkpt><trkpt lat="40.101618" lon="-5.909563"><ele>813.5</ele><time>2013-05-07T10:09:00Z</time></trkpt><trkpt lat="40.101741" lon="-5.909495"><ele>813.0</ele><time>2013-05-07T10:09:20Z</time></trkpt><trkpt lat="40.101829" lon="-5.909419"><ele>813.3</ele><time>2013-05-07T10:09:41Z</time></trkpt><trkpt lat="40.101952" lon="-5.909300"><ele>814.4</ele><time>2013-05-07T10:10:01Z</time></trkpt><trkpt lat="40.102058" lon="-5.909210"><ele>815.1</ele><time>2013-05-07T10:10:21Z</time></trkpt><trkpt lat="40.102154" lon="-5.909175"><ele>814.2</ele><time>2013-05-07T10:10:40Z</time></trkpt><trkpt lat="40.102287" lon="-5.909142"><ele>812.1</ele><time>2013-05-07T10:11:00Z</time></trkpt><trkpt lat="40.102337" lon="-5.909121"><ele>811.5</ele><time>2013-05-07T10:11:20Z</time></trkpt><trkpt lat="40.102524" lon="-5.909094"><ele>807.8</ele><time>2013-05-07T10:11:41Z</time></trkpt><trkpt lat="40.102589" lon="-5.909079"><ele>806.0</ele><time>2013-05-07T10:12:01Z</time></trkpt><trkpt lat="40.102600" lon="-5.909080"><ele>805.6</ele><time>2013-05-07T10:12:21Z</time></trkpt><trkpt lat="40.102772" lon="-5.909080"><ele>800.0</ele><time>2013-05-07T10:12:40Z</time></trkpt><trkpt lat="40.102818" lon="-5.909076"><ele>798.6</ele><time>2013-05-07T10:13:00Z</time></trkpt><trkpt lat="40.102924" lon="-5.908906"><ele>798.6</ele><time>2013-05-07T10:13:21Z</time></trkpt><trkpt lat="40.102936" lon="-5.908852"><ele>799.3</ele><time>2013-05-07T10:13:41Z</time></trkpt><trkpt lat="40.102962" lon="-5.908766"><ele>800.2</ele><time>2013-05-07T10:14:01Z</time></trkpt><trkpt lat="40.103008" lon="-5.908694"><ele>800.1</ele><time>2013-05-07T10:14:20Z</time></trkpt><trkpt lat="40.103096" lon="-5.908614"><ele>798.7</ele><time>2013-05-07T10:14:40Z</time></trkpt><trkpt lat="40.103161" lon="-5.908574"><ele>797.3</ele><time>2013-05-07T10:15:00Z</time></trkpt><trkpt lat="40.103199" lon="-5.908563"><ele>796.2</ele><time>2013-05-07T10:15:21Z</time></trkpt><trkpt lat="40.103249" lon="-5.908515"><ele>795.4</ele><time>2013-05-07T10:15:41Z</time></trkpt><trkpt lat="40.103300" lon="-5.908412"><ele>795.6</ele><time>2013-05-07T10:16:01Z</time></trkpt><trkpt lat="40.103432" lon="-5.908237"><ele>793.5</ele><time>2013-05-07T10:16:20Z</time></trkpt><trkpt lat="40.103569" lon="-5.908042"><ele>790.5</ele><time>2013-05-07T10:16:40Z</time></trkpt><trkpt lat="40.103615" lon="-5.907885"><ele>790.3</ele><time>2013-05-07T10:17:01Z</time></trkpt><trkpt lat="40.103653" lon="-5.907781"><ele>789.9</ele><time>2013-05-07T10:17:21Z</time></trkpt><trkpt lat="40.103726" lon="-5.907568"><ele>789.3</ele><time>2013-05-07T10:17:41Z</time></trkpt><trkpt lat="40.103744" lon="-5.907392"><ele>788.9</ele><time>2013-05-07T10:18:00Z</time></trkpt><trkpt lat="40.103795" lon="-5.907254"><ele>786.5</ele><time>2013-05-07T10:18:20Z</time></trkpt><trkpt lat="40.103809" lon="-5.907155"><ele>785.6</ele><time>2013-05-07T10:18:41Z</time></trkpt><trkpt lat="40.103790" lon="-5.907078"><ele>786.1</ele><time>2013-05-07T10:19:01Z</time></trkpt><trkpt lat="40.103814" lon="-5.906950"><ele>784.7</ele><time>2013-05-07T10:19:21Z</time></trkpt><trkpt lat="40.103813" lon="-5.906826"><ele>784.4</ele><time>2013-05-07T10:19:40Z</time></trkpt><trkpt lat="40.103843" lon="-5.906710"><ele>782.7</ele><time>2013-05-07T10:20:00Z</time></trkpt><trkpt lat="40.103863" lon="-5.906609"><ele>781.9</ele><time>2013-05-07T10:20:20Z</time></trkpt><trkpt lat="40.103877" lon="-5.906495"><ele>781.6</ele><time>2013-05-07T10:20:41Z</time></trkpt><trkpt lat="40.103907" lon="-5.906399"><ele>780.6</ele><time>2013-05-07T10:21:01Z</time></trkpt><trkpt lat="40.103929" lon="-5.906298"><ele>779.9</ele><time>2013-05-07T10:21:21Z</time></trkpt><trkpt lat="40.103954" lon="-5.906217"><ele>779.1</ele><time>2013-05-07T10:21:40Z</time></trkpt><trkpt lat="40.103973" lon="-5.906155"><ele>778.5</ele><time>2013-05-07T10:22:00Z</time></trkpt><trkpt lat="40.104012" lon="-5.905931"><ele>777.7</ele><time>2013-05-07T10:22:21Z</time></trkpt><trkpt lat="40.104056" lon="-5.905749"><ele>776.8</ele><time>2013-05-07T10:22:41Z</time></trkpt><trkpt lat="40.104115" lon="-5.905531"><ele>776.1</ele><time>2013-05-07T10:23:01Z</time></trkpt><trkpt lat="40.104149" lon="-5.905436"><ele>775.5</ele><time>2013-05-07T10:23:20Z</time></trkpt><trkpt lat="40.104166" lon="-5.905311"><ele>775.8</ele><time>2013-05-07T10:23:40Z</time></trkpt><trkpt lat="40.104160" lon="-5.905176"><ele>777.0</ele><time>2013-05-07T10:24:00Z</time></trkpt><trkpt lat="40.104135" lon="-5.905098"><ele>778.4</ele><time>2013-05-07T10:24:21Z</time></trkpt><trkpt lat="40.104130" lon="-5.904923"><ele>779.3</ele><time>2013-05-07T10:24:41Z</time></trkpt><trkpt lat="40.104118" lon="-5.904771"><ele>779.6</ele><time>2013-05-07T10:25:01Z</time></trkpt><trkpt lat="40.104095" lon="-5.904640"><ele>780.3</ele><time>2013-05-07T10:25:20Z</time></trkpt><trkpt lat="40.104095" lon="-5.904629"><ele>780.3</ele><time>2013-05-07T10:25:40Z</time></trkpt><trkpt lat="40.104084" lon="-5.904569"><ele>780.7</ele><time>2013-05-07T10:26:01Z</time></trkpt><trkpt lat="40.104076" lon="-5.904493"><ele>780.9</ele><time>2013-05-07T10:26:21Z</time></trkpt><trkpt lat="40.104019" lon="-5.904241"><ele>782.5</ele><time>2013-05-07T10:26:41Z</time></trkpt><trkpt lat="40.103970" lon="-5.903996"><ele>782.0</ele><time>2013-05-07T10:27:00Z</time></trkpt><trkpt lat="40.103966" lon="-5.903982"><ele>782.0</ele><time>2013-05-07T10:27:20Z</time></trkpt><trkpt lat="40.103889" lon="-5.903903"><ele>783.5</ele><time>2013-05-07T10:27:41Z</time></trkpt><trkpt lat="40.103771" lon="-5.903843"><ele>786.5</ele><time>2013-05-07T10:28:01Z</time></trkpt><trkpt lat="40.103657" lon="-5.903785"><ele>789.6</ele><time>2013-05-07T10:28:21Z</time></trkpt><trkpt lat="40.103544" lon="-5.903639"><ele>791.8</ele><time>2013-05-07T10:28:40Z</time></trkpt><trkpt lat="40.103486" lon="-5.903499"><ele>792.4</ele><time>2013-05-07T10:29:00Z</time></trkpt><trkpt lat="40.103490" lon="-5.903253"><ele>790.2</ele><time>2013-05-07T10:29:20Z</time></trkpt><trkpt lat="40.103504" lon="-5.903012"><ele>788.0</ele><time>2013-05-07T10:29:41Z</time></trkpt><trkpt lat="40.103500" lon="-5.902942"><ele>787.7</ele><time>2013-05-07T10:30:01Z</time></trkpt><trkpt lat="40.103504" lon="-5.902736"><ele>786.1</ele><time>2013-05-07T10:30:21Z</time></trkpt><trkpt lat="40.103508" lon="-5.902469"><ele>784.2</ele><time>2013-05-07T10:30:40Z</time></trkpt><trkpt lat="40.103558" lon="-5.902238"><ele>781.3</ele><time>2013-05-07T10:31:00Z</time></trkpt><trkpt lat="40.103569" lon="-5.901982"><ele>779.8</ele><time>2013-05-07T10:31:21Z</time></trkpt><trkpt lat="40.103522" lon="-5.901729"><ele>780.5</ele><time>2013-05-07T10:31:41Z</time></trkpt><trkpt lat="40.103517" lon="-5.901541"><ele>779.6</ele><time>2013-05-07T10:32:01Z</time></trkpt><trkpt lat="40.103541" lon="-5.901305"><ele>777.5</ele><time>2013-05-07T10:32:20Z</time></trkpt><trkpt lat="40.103502" lon="-5.901001"><ele>776.9</ele><time>2013-05-07T10:32:40Z</time></trkpt><trkpt lat="40.103484" lon="-5.900730"><ele>775.9</ele><time>2013-05-07T10:33:00Z</time></trkpt><trkpt lat="40.103477" lon="-5.900470"><ele>774.6</ele><time>2013-05-07T10:33:21Z</time></trkpt><trkpt lat="40.103447" lon="-5.900205"><ele>773.9</ele><time>2013-05-07T10:33:41Z</time></trkpt><trkpt lat="40.103405" lon="-5.899937"><ele>773.7</ele><time>2013-05-07T10:34:01Z</time></trkpt><trkpt lat="40.103367" lon="-5.899713"><ele>774.1</ele><time>2013-05-07T10:34:20Z</time></trkpt><trkpt lat="40.103317" lon="-5.899474"><ele>774.7</ele><time>2013-05-07T10:34:40Z</time></trkpt><trkpt lat="40.103432" lon="-5.899239"><ele>770.9</ele><time>2013-05-07T10:35:01Z</time></trkpt><trkpt lat="40.103489" lon="-5.899174"><ele>769.3</ele><time>2013-05-07T10:35:21Z</time></trkpt><trkpt lat="40.103535" lon="-5.899117"><ele>768.2</ele><time>2013-05-07T10:35:41Z</time></trkpt><trkpt lat="40.103642" lon="-5.898867"><ele>765.8</ele><time>2013-05-07T10:36:00Z</time></trkpt><trkpt lat="40.103760" lon="-5.898705"><ele>763.3</ele><time>2013-05-07T10:36:20Z</time></trkpt><trkpt lat="40.103901" lon="-5.898532"><ele>760.7</ele><time>2013-05-07T10:36:41Z</time></trkpt><trkpt lat="40.103939" lon="-5.898426"><ele>760.2</ele><time>2013-05-07T10:37:01Z</time></trkpt><trkpt lat="40.103951" lon="-5.898426"><ele>759.9</ele><time>2013-05-07T10:37:21Z</time></trkpt><trkpt lat="40.104057" lon="-5.898424"><ele>757.8</ele><time>2013-05-07T10:37:40Z</time></trkpt><trkpt lat="40.104214" lon="-5.898341"><ele>755.3</ele><time>2013-05-07T10:38:00Z</time></trkpt><trkpt lat="40.104301" lon="-5.898287"><ele>754.2</ele><time>2013-05-07T10:38:20Z</time></trkpt><trkpt lat="40.104416" lon="-5.898202"><ele>752.7</ele><time>2013-05-07T10:38:41Z</time></trkpt><trkpt lat="40.104588" lon="-5.898071"><ele>750.3</ele><time>2013-05-07T10:39:01Z</time></trkpt><trkpt lat="40.104805" lon="-5.898046"><ele>747.3</ele><time>2013-05-07T10:39:21Z</time></trkpt><trkpt lat="40.105007" lon="-5.898040"><ele>744.5</ele><time>2013-05-07T10:39:40Z</time></trkpt><trkpt lat="40.105206" lon="-5.897968"><ele>741.5</ele><time>2013-05-07T10:40:00Z</time></trkpt><trkpt lat="40.105366" lon="-5.897858"><ele>739.0</ele><time>2013-05-07T10:40:21Z</time></trkpt><trkpt lat="40.105492" lon="-5.897664"><ele>737.0</ele><time>2013-05-07T10:40:41Z</time></trkpt><trkpt lat="40.105499" lon="-5.897648"><ele>736.9</ele><time>2013-05-07T10:41:01Z</time></trkpt><trkpt lat="40.105537" lon="-5.897580"><ele>736.3</ele><time>2013-05-07T10:41:20Z</time></trkpt><trkpt lat="40.105739" lon="-5.897366"><ele>732.6</ele><time>2013-05-07T10:41:40Z</time></trkpt><trkpt lat="40.105858" lon="-5.897464"><ele>731.4</ele><time>2013-05-07T10:42:00Z</time></trkpt><trkpt lat="40.105930" lon="-5.897666"><ele>730.5</ele><time>2013-05-07T10:42:21Z</time></trkpt><trkpt lat="40.106039" lon="-5.897801"><ele>728.8</ele><time>2013-05-07T10:42:41Z</time></trkpt><trkpt lat="40.106224" lon="-5.897955"><ele>725.9</ele><time>2013-05-07T10:43:01Z</time></trkpt><trkpt lat="40.106330" lon="-5.898045"><ele>724.3</ele><time>2013-05-07T10:43:20Z</time></trkpt><trkpt lat="40.106312" lon="-5.898137"><ele>724.5</ele><time>2013-05-07T10:43:40Z</time></trkpt><trkpt lat="40.106300" lon="-5.898207"><ele>724.7</ele><time>2013-05-07T10:44:01Z</time></trkpt><trkpt lat="40.106327" lon="-5.898451"><ele>723.5</ele><time>2013-05-07T10:44:21Z</time></trkpt><trkpt lat="40.106464" lon="-5.898666"><ele>720.1</ele><time>2013-05-07T10:44:41Z</time></trkpt><trkpt lat="40.106533" lon="-5.898785"><ele>718.3</ele><time>2013-05-07T10:45:00Z</time></trkpt><trkpt lat="40.106659" lon="-5.898999"><ele>715.1</ele><time>2013-05-07T10:45:20Z</time></trkpt><trkpt lat="40.106758" lon="-5.899246"><ele>711.8</ele><time>2013-05-07T10:45:41Z</time></trkpt><trkpt lat="40.106770" lon="-5.899398"><ele>710.6</ele><time>2013-05-07T10:46:01Z</time></trkpt><trkpt lat="40.106750" lon="-5.899595"><ele>709.7</ele><time>2013-05-07T10:46:21Z</time></trkpt><trkpt lat="40.106701" lon="-5.899894"><ele>708.3</ele><time>2013-05-07T10:46:40Z</time></trkpt><trkpt lat="40.106682" lon="-5.900074"><ele>707.6</ele><time>2013-05-07T10:47:00Z</time></trkpt><trkpt lat="40.106697" lon="-5.900351"><ele>706.8</ele><time>2013-05-07T10:47:20Z</time></trkpt><trkpt lat="40.106667" lon="-5.900628"><ele>706.5</ele><time>2013-05-07T10:47:41Z</time></trkpt><trkpt lat="40.106682" lon="-5.900890"><ele>705.7</ele><time>2013-05-07T10:48:01Z</time></trkpt><trkpt lat="40.106693" lon="-5.901053"><ele>705.1</ele><time>2013-05-07T10:48:21Z</time></trkpt><trkpt lat="40.106724" lon="-5.901148"><ele>704.4</ele><time>2013-05-07T10:48:40Z</time></trkpt><trkpt lat="40.106815" lon="-5.901398"><ele>702.3</ele><time>2013-05-07T10:49:00Z</time></trkpt><trkpt lat="40.106861" lon="-5.901634"><ele>700.8</ele><time>2013-05-07T10:49:21Z</time></trkpt><trkpt lat="40.106850" lon="-5.901805"><ele>700.2</ele><time>2013-05-07T10:49:41Z</time></trkpt><trkpt lat="40.106842" lon="-5.901883"><ele>699.9</ele><time>2013-05-07T10:50:01Z</time></trkpt><trkpt lat="40.106815" lon="-5.902020"><ele>699.7</ele><time>2013-05-07T10:50:20Z</time></trkpt><trkpt lat="40.106796" lon="-5.902092"><ele>699.6</ele><time>2013-05-07T10:50:40Z</time></trkpt><trkpt lat="40.106766" lon="-5.902316"><ele>699.0</ele><time>2013-05-07T10:51:00Z</time></trkpt><trkpt lat="40.106785" lon="-5.902525"><ele>697.7</ele><time>2013-05-07T10:51:21Z</time></trkpt><trkpt lat="40.106788" lon="-5.902584"><ele>697.7</ele><time>2013-05-07T10:51:41Z</time></trkpt><trkpt lat="40.106818" lon="-5.902652"><ele>697.2</ele><time>2013-05-07T10:52:01Z</time></trkpt><trkpt lat="40.106855" lon="-5.902710"><ele>696.5</ele><time>2013-05-07T10:52:20Z</time></trkpt><trkpt lat="40.106972" lon="-5.902791"><ele>694.4</ele><time>2013-05-07T10:52:40Z</time></trkpt><trkpt lat="40.106976" lon="-5.902797"><ele>694.3</ele><time>2013-05-07T10:53:01Z</time></trkpt><trkpt lat="40.106995" lon="-5.902837"><ele>694.0</ele><time>2013-05-07T10:53:21Z</time></trkpt><trkpt lat="40.107094" lon="-5.902793"><ele>692.2</ele><time>2013-05-07T10:53:41Z</time></trkpt><trkpt lat="40.107132" lon="-5.902780"><ele>691.4</ele><time>2013-05-07T10:54:00Z</time></trkpt><trkpt lat="40.107166" lon="-5.902781"><ele>690.8</ele><time>2013-05-07T10:54:20Z</time></trkpt><trkpt lat="40.107201" lon="-5.902899"><ele>690.4</ele><time>2013-05-07T10:54:41Z</time></trkpt><trkpt lat="40.107212" lon="-5.903018"><ele>690.3</ele><time>2013-05-07T10:55:01Z</time></trkpt><trkpt lat="40.107243" lon="-5.903195"><ele>690.1</ele><time>2013-05-07T10:55:21Z</time></trkpt><trkpt lat="40.107260" lon="-5.903161"><ele>689.7</ele><time>2013-05-07T10:55:40Z</time></trkpt><trkpt lat="40.107273" lon="-5.903197"><ele>689.6</ele><time>2013-05-07T10:56:00Z</time></trkpt><trkpt lat="40.107285" lon="-5.903276"><ele>689.5</ele><time>2013-05-07T10:56:20Z</time></trkpt><trkpt lat="40.107285" lon="-5.903265"><ele>689.5</ele><time>2013-05-07T10:56:41Z</time></trkpt><trkpt lat="40.107285" lon="-5.903263"><ele>689.5</ele><time>2013-05-07T10:57:01Z</time></trkpt><trkpt lat="40.107285" lon="-5.903263"><ele>689.5</ele><time>2013-05-07T10:57:21Z</time></trkpt><trkpt lat="40.107285" lon="-5.903261"><ele>689.5</ele><time>2013-05-07T10:57:40Z</time></trkpt><trkpt lat="40.107285" lon="-5.903260"><ele>689.5</ele><time>2013-05-07T10:58:00Z</time></trkpt><trkpt lat="40.107285" lon="-5.903260"><ele>689.5</ele><time>2013-05-07T10:58:21Z</time></trkpt><trkpt lat="40.107292" lon="-5.903278"><ele>689.4</ele><time>2013-05-07T10:58:41Z</time></trkpt><trkpt lat="40.107304" lon="-5.903367"><ele>689.3</ele><time>2013-05-07T10:59:01Z</time></trkpt><trkpt lat="40.107304" lon="-5.903495"><ele>689.2</ele><time>2013-05-07T10:59:20Z</time></trkpt><trkpt lat="40.107273" lon="-5.903633"><ele>689.7</ele><time>2013-05-07T10:59:40Z</time></trkpt><trkpt lat="40.107269" lon="-5.903728"><ele>689.7</ele><time>2013-05-07T11:00:00Z</time></trkpt><trkpt lat="40.107257" lon="-5.903806"><ele>689.9</ele><time>2013-05-07T11:00:21Z</time></trkpt><trkpt lat="40.107259" lon="-5.903917"><ele>689.8</ele><time>2013-05-07T11:00:41Z</time></trkpt><trkpt lat="40.107252" lon="-5.904011"><ele>689.9</ele><time>2013-05-07T11:01:01Z</time></trkpt><trkpt lat="40.107270" lon="-5.904114"><ele>689.6</ele><time>2013-05-07T11:01:20Z</time></trkpt><trkpt lat="40.107246" lon="-5.904167"><ele>690.0</ele><time>2013-05-07T11:01:40Z</time></trkpt><trkpt lat="40.107243" lon="-5.904212"><ele>689.7</ele><time>2013-05-07T11:02:01Z</time></trkpt><trkpt lat="40.107254" lon="-5.904320"><ele>689.0</ele><time>2013-05-07T11:02:21Z</time></trkpt><trkpt lat="40.107250" lon="-5.904374"><ele>688.7</ele><time>2013-05-07T11:02:41Z</time></trkpt><trkpt lat="40.107246" lon="-5.904415"><ele>688.5</ele><time>2013-05-07T11:03:00Z</time></trkpt><trkpt lat="40.107250" lon="-5.904564"><ele>687.6</ele><time>2013-05-07T11:03:20Z</time></trkpt><trkpt lat="40.107258" lon="-5.904586"><ele>687.3</ele><time>2013-05-07T11:03:41Z</time></trkpt><trkpt lat="40.107254" lon="-5.904787"><ele>686.3</ele><time>2013-05-07T11:04:01Z</time></trkpt><trkpt lat="40.107265" lon="-5.904829"><ele>685.8</ele><time>2013-05-07T11:04:21Z</time></trkpt><trkpt lat="40.107258" lon="-5.905029"><ele>684.9</ele><time>2013-05-07T11:04:40Z</time></trkpt><trkpt lat="40.107257" lon="-5.905084"><ele>684.8</ele><time>2013-05-07T11:05:00Z</time></trkpt><trkpt lat="40.107243" lon="-5.905192"><ele>684.8</ele><time>2013-05-07T11:05:20Z</time></trkpt><trkpt lat="40.107220" lon="-5.905365"><ele>684.8</ele><time>2013-05-07T11:05:41Z</time></trkpt><trkpt lat="40.107216" lon="-5.905594"><ele>684.4</ele><time>2013-05-07T11:06:01Z</time></trkpt><trkpt lat="40.107212" lon="-5.905604"><ele>684.4</ele><time>2013-05-07T11:06:21Z</time></trkpt><trkpt lat="40.107204" lon="-5.905645"><ele>684.4</ele><time>2013-05-07T11:06:40Z</time></trkpt><trkpt lat="40.107214" lon="-5.905707"><ele>684.1</ele><time>2013-05-07T11:07:00Z</time></trkpt><trkpt lat="40.107210" lon="-5.905786"><ele>684.0</ele><time>2013-05-07T11:07:21Z</time></trkpt><trkpt lat="40.107203" lon="-5.905950"><ele>683.1</ele><time>2013-05-07T11:07:41Z</time></trkpt><trkpt lat="40.107184" lon="-5.906105"><ele>682.3</ele><time>2013-05-07T11:08:01Z</time></trkpt><trkpt lat="40.107175" lon="-5.906172"><ele>681.9</ele><time>2013-05-07T11:08:20Z</time></trkpt><trkpt lat="40.107187" lon="-5.906243"><ele>681.2</ele><time>2013-05-07T11:08:40Z</time></trkpt><trkpt lat="40.107192" lon="-5.906425"><ele>679.7</ele><time>2013-05-07T11:09:00Z</time></trkpt><trkpt lat="40.107188" lon="-5.906583"><ele>678.6</ele><time>2013-05-07T11:09:21Z</time></trkpt><trkpt lat="40.107185" lon="-5.906700"><ele>677.8</ele><time>2013-05-07T11:09:41Z</time></trkpt><trkpt lat="40.107175" lon="-5.906917"><ele>676.7</ele><time>2013-05-07T11:10:01Z</time></trkpt><trkpt lat="40.107153" lon="-5.907054"><ele>676.3</ele><time>2013-05-07T11:10:20Z</time></trkpt><trkpt lat="40.107157" lon="-5.907274"><ele>674.9</ele><time>2013-05-07T11:10:40Z</time></trkpt><trkpt lat="40.107162" lon="-5.907430"><ele>673.8</ele><time>2013-05-07T11:11:01Z</time></trkpt><trkpt lat="40.107173" lon="-5.907709"><ele>671.9</ele><time>2013-05-07T11:11:21Z</time></trkpt><trkpt lat="40.107173" lon="-5.907864"><ele>671.0</ele><time>2013-05-07T11:11:41Z</time></trkpt><trkpt lat="40.107181" lon="-5.907935"><ele>670.4</ele><time>2013-05-07T11:12:00Z</time></trkpt><trkpt lat="40.107170" lon="-5.908055"><ele>670.0</ele><time>2013-05-07T11:12:20Z</time></trkpt><trkpt lat="40.107182" lon="-5.908262"><ele>668.6</ele><time>2013-05-07T11:12:41Z</time></trkpt><trkpt lat="40.107174" lon="-5.908307"><ele>668.5</ele><time>2013-05-07T11:13:01Z</time></trkpt><trkpt lat="40.107174" lon="-5.908360"><ele>668.2</ele><time>2013-05-07T11:13:21Z</time></trkpt><trkpt lat="40.107155" lon="-5.908630"><ele>666.3</ele><time>2013-05-07T11:13:40Z</time></trkpt><trkpt lat="40.107151" lon="-5.908652"><ele>666.2</ele><time>2013-05-07T11:14:00Z</time></trkpt><trkpt lat="40.107147" lon="-5.908712"><ele>665.8</ele><time>2013-05-07T11:14:20Z</time></trkpt><trkpt lat="40.107121" lon="-5.908881"><ele>665.0</ele><time>2013-05-07T11:14:41Z</time></trkpt><trkpt lat="40.107117" lon="-5.908907"><ele>664.9</ele><time>2013-05-07T11:15:01Z</time></trkpt><trkpt lat="40.107105" lon="-5.908944"><ele>664.9</ele><time>2013-05-07T11:15:21Z</time></trkpt><trkpt lat="40.107082" lon="-5.909065"><ele>664.5</ele><time>2013-05-07T11:15:40Z</time></trkpt><trkpt lat="40.107079" lon="-5.909103"><ele>664.2</ele><time>2013-05-07T11:16:00Z</time></trkpt><trkpt lat="40.107059" lon="-5.909287"><ele>663.0</ele><time>2013-05-07T11:16:21Z</time></trkpt><trkpt lat="40.107024" lon="-5.909515"><ele>661.9</ele><time>2013-05-07T11:16:41Z</time></trkpt><trkpt lat="40.106964" lon="-5.909667"><ele>662.3</ele><time>2013-05-07T11:17:01Z</time></trkpt><trkpt lat="40.106977" lon="-5.909765"><ele>661.1</ele><time>2013-05-07T11:17:20Z</time></trkpt><trkpt lat="40.106941" lon="-5.909985"><ele>660.2</ele><time>2013-05-07T11:17:40Z</time></trkpt><trkpt lat="40.106918" lon="-5.910119"><ele>659.6</ele><time>2013-05-07T11:18:00Z</time></trkpt><trkpt lat="40.106903" lon="-5.910248"><ele>658.7</ele><time>2013-05-07T11:18:21Z</time></trkpt><trkpt lat="40.106903" lon="-5.910248"><ele>658.7</ele><time>2013-05-07T11:18:41Z</time></trkpt><trkpt lat="40.106884" lon="-5.910305"><ele>658.7</ele><time>2013-05-07T11:19:01Z</time></trkpt><trkpt lat="40.106850" lon="-5.910467"><ele>658.0</ele><time>2013-05-07T11:19:20Z</time></trkpt><trkpt lat="40.106792" lon="-5.910634"><ele>658.1</ele><time>2013-05-07T11:19:40Z</time></trkpt><trkpt lat="40.106781" lon="-5.910754"><ele>657.2</ele><time>2013-05-07T11:20:01Z</time></trkpt><trkpt lat="40.106768" lon="-5.910835"><ele>656.7</ele><time>2013-05-07T11:20:21Z</time></trkpt><trkpt lat="40.106749" lon="-5.910875"><ele>656.7</ele><time>2013-05-07T11:20:41Z</time></trkpt><trkpt lat="40.106736" lon="-5.910931"><ele>656.3</ele><time>2013-05-07T11:21:00Z</time></trkpt><trkpt lat="40.106685" lon="-5.911175"><ele>654.1</ele><time>2013-05-07T11:21:20Z</time></trkpt><trkpt lat="40.106620" lon="-5.911442"><ele>651.6</ele><time>2013-05-07T11:21:41Z</time></trkpt><trkpt lat="40.106548" lon="-5.911606"><ele>650.5</ele><time>2013-05-07T11:22:01Z</time></trkpt><trkpt lat="40.106519" lon="-5.911663"><ele>650.2</ele><time>2013-05-07T11:22:21Z</time></trkpt><trkpt lat="40.106464" lon="-5.911738"><ele>650.9</ele><time>2013-05-07T11:22:40Z</time></trkpt><trkpt lat="40.106319" lon="-5.911899"><ele>653.1</ele><time>2013-05-07T11:23:00Z</time></trkpt><trkpt lat="40.106174" lon="-5.912054"><ele>655.4</ele><time>2013-05-07T11:23:20Z</time></trkpt><trkpt lat="40.106022" lon="-5.912233"><ele>657.9</ele><time>2013-05-07T11:23:41Z</time></trkpt><trkpt lat="40.106010" lon="-5.912252"><ele>658.1</ele><time>2013-05-07T11:24:01Z</time></trkpt><trkpt lat="40.106025" lon="-5.912434"><ele>656.8</ele><time>2013-05-07T11:24:21Z</time></trkpt><trkpt lat="40.105990" lon="-5.912485"><ele>657.3</ele><time>2013-05-07T11:24:40Z</time></trkpt></trkseg></trk></gpx>